Darstellungsparameter: Aktuell verwendete Einstellungen:
Skalierung der Graphiken ... ?
xyx+y,   Skalierungsfaktor:      Skalierung: Modus: x, Faktor: 1
Darstellungszeitraum ... ?
Vom - - bis: - -   Zeitraum: 08.08.2016 - 12.08.2016
Min/Max/Avg-Anzeige ... ?
Zeige MMA aktuell
Zeige MMA Monat
Zeige MMA alles
Zeige --A aktuell
Zeige --A Monat
Zeige --A alles
Keine MMA-Anzeige
MMA:
Keine MMA-Graphiken
MMA-Basis: 08.08.2016 - 12.08.2016
Quicknavigation für Darstellung... ?
Tage:      1T, 2T, 3T, 5T -1T -2T -3T -5T +1T +2T +3T +5T
Wochen: 1W, 2W, 3W -1W -2W -3W +1W +2W +3W
Monate: 1M, 3M, 6M -1M -3M -6M +1M +3M +6M
Jahre:    1J, 3J, 5J, 10J -1J -3J -5J -10J +1J +3J +5J +10J
Nutze für die Darstellung ... ?
Originaldaten oder Mittelwerte auf ...
Stundenbasis Tagesbasis Wochenbasis
Monatsbasis Jahresbasis      Datenbasis: Original-Daten
Darstellen als:
Statistik (Auto) Statistik J:M      Darstellung:
Zur Graphik,    zurück zur Übersicht aller Sensoren.
 
Tabellarische Datenbersicht: ?
 
Sensor: Nr:Datum:Temp:Feuchte:Taupunkt:
Aussen-T/F 1 08-08-2016 00:00:00 18.1 C 88 % 16.08 C
2 08-08-2016 00:05:00 18 C 88 % 15.98 C
3 08-08-2016 00:10:00 17.9 C 88 % 15.88 C
4 08-08-2016 00:15:00 17.8 C 89 % 15.96 C
5 08-08-2016 00:20:00 17.7 C 89 % 15.86 C
6 08-08-2016 00:25:00 17.7 C 89 % 15.86 C
7 08-08-2016 00:30:00 17.6 C 89 % 15.77 C
8 08-08-2016 00:35:00 17.4 C 90 % 15.74 C
9 08-08-2016 00:40:00 17.4 C 90 % 15.74 C
10 08-08-2016 00:45:00 17.4 C 90 % 15.74 C
11 08-08-2016 00:50:00 17.4 C 90 % 15.74 C
12 08-08-2016 00:55:00 17.3 C 90 % 15.64 C
13 08-08-2016 01:00:00 17.3 C 90 % 15.64 C
14 08-08-2016 01:05:00 17.2 C 90 % 15.55 C
15 08-08-2016 01:10:00 17.3 C 90 % 15.64 C
16 08-08-2016 01:15:00 17.3 C 90 % 15.64 C
17 08-08-2016 01:20:00 17.3 C 90 % 15.64 C
18 08-08-2016 01:25:00 17.4 C 90 % 15.74 C
19 08-08-2016 01:30:00 17.5 C 91 % 16.01 C
20 08-08-2016 01:35:00 17.6 C 91 % 16.11 C
21 08-08-2016 01:40:00 17.6 C 90 % 15.94 C
22 08-08-2016 01:45:00 17.7 C 90 % 16.04 C
23 08-08-2016 01:50:00 17.8 C 90 % 16.14 C
24 08-08-2016 01:55:00 17.8 C 90 % 16.14 C
25 08-08-2016 02:00:00 17.8 C 90 % 16.14 C
Sensor: Nr:Datum:Temp:Feuchte:Taupunkt:
Aussen-T/F 26 08-08-2016 02:05:00 17.8 C 89 % 15.96 C
27 08-08-2016 02:10:00 17.8 C 89 % 15.96 C
28 08-08-2016 02:15:00 17.8 C 89 % 15.96 C
29 08-08-2016 02:20:00 17.8 C 89 % 15.96 C
30 08-08-2016 02:25:00 17.8 C 89 % 15.96 C
31 08-08-2016 02:30:00 17.8 C 89 % 15.96 C
32 08-08-2016 02:35:00 17.8 C 89 % 15.96 C
33 08-08-2016 02:40:00 17.9 C 89 % 16.06 C
34 08-08-2016 02:45:00 17.9 C 89 % 16.06 C
35 08-08-2016 02:50:00 18 C 88 % 15.98 C
36 08-08-2016 02:55:00 18.1 C 89 % 16.26 C
37 08-08-2016 03:00:00 18.1 C 88 % 16.08 C
38 08-08-2016 03:05:00 18.1 C 88 % 16.08 C
39 08-08-2016 03:10:00 18.1 C 88 % 16.08 C
40 08-08-2016 03:15:00 18.2 C 87 % 16 C
41 08-08-2016 03:20:00 18.1 C 88 % 16.08 C
42 08-08-2016 03:25:00 18.1 C 88 % 16.08 C
43 08-08-2016 03:30:00 18 C 89 % 16.16 C
44 08-08-2016 03:35:00 17.9 C 88 % 15.88 C
45 08-08-2016 03:40:00 17.8 C 88 % 15.79 C
46 08-08-2016 03:45:00 17.8 C 88 % 15.79 C
47 08-08-2016 03:50:00 17.8 C 88 % 15.79 C
48 08-08-2016 03:55:00 17.8 C 88 % 15.79 C
49 08-08-2016 04:00:00 17.7 C 88 % 15.69 C
50 08-08-2016 04:05:00 17.6 C 88 % 15.59 C
Sensor: Nr:Datum:Temp:Feuchte:Taupunkt:
Aussen-T/F 51 08-08-2016 04:10:00 17.4 C 88 % 15.39 C
52 08-08-2016 04:15:00 17.3 C 89 % 15.47 C
53 08-08-2016 04:20:00 17.3 C 89 % 15.47 C
54 08-08-2016 04:25:00 17.2 C 89 % 15.37 C
55 08-08-2016 04:30:00 17.1 C 90 % 15.45 C
56 08-08-2016 04:35:00 16.9 C 90 % 15.25 C
57 08-08-2016 04:40:00 16.9 C 89 % 15.08 C
58 08-08-2016 04:45:00 16.8 C 90 % 15.15 C
59 08-08-2016 04:50:00 16.7 C 90 % 15.05 C
60 08-08-2016 04:55:00 16.7 C 90 % 15.05 C
61 08-08-2016 05:00:00 16.6 C 90 % 14.95 C
62 08-08-2016 05:05:00 16.6 C 91 % 15.13 C
63 08-08-2016 05:10:00 16.5 C 91 % 15.03 C
64 08-08-2016 05:15:00 16.5 C 91 % 15.03 C
65 08-08-2016 05:20:00 16.4 C 91 % 14.93 C
66 08-08-2016 05:25:00 16.4 C 91 % 14.93 C
67 08-08-2016 05:30:00 16.3 C 91 % 14.83 C
68 08-08-2016 05:35:00 16.3 C 91 % 14.83 C
69 08-08-2016 05:40:00 16.2 C 91 % 14.73 C
70 08-08-2016 05:45:00 16.2 C 92 % 14.9 C
71 08-08-2016 05:50:00 16.2 C 92 % 14.9 C
72 08-08-2016 05:55:00 16.1 C 92 % 14.8 C
73 08-08-2016 06:00:00 16.1 C 92 % 14.8 C
74 08-08-2016 06:05:00 16.2 C 93 % 15.07 C
75 08-08-2016 06:10:00 16.2 C 93 % 15.07 C
Sensor: Nr:Datum:Temp:Feuchte:Taupunkt:
Aussen-T/F 76 08-08-2016 06:15:00 16.2 C 93 % 15.07 C
77 08-08-2016 06:20:00 16.3 C 93 % 15.17 C
78 08-08-2016 06:25:00 16.3 C 93 % 15.17 C
79 08-08-2016 06:30:00 16.4 C 93 % 15.27 C
80 08-08-2016 06:35:00 16.4 C 92 % 15.1 C
81 08-08-2016 06:40:00 16.4 C 93 % 15.27 C
82 08-08-2016 06:45:00 16.5 C 93 % 15.36 C
83 08-08-2016 06:50:00 16.6 C 93 % 15.46 C
84 08-08-2016 06:55:00 16.6 C 93 % 15.46 C
85 08-08-2016 07:00:00 16.7 C 92 % 15.39 C
86 08-08-2016 07:05:00 16.7 C 92 % 15.39 C
87 08-08-2016 07:10:00 16.8 C 92 % 15.49 C
88 08-08-2016 07:15:00 16.9 C 91 % 15.42 C
89 08-08-2016 07:20:00 17.1 C 91 % 15.62 C
90 08-08-2016 07:25:00 17.2 C 90 % 15.55 C
91 08-08-2016 07:30:00 17.2 C 90 % 15.55 C
92 08-08-2016 07:35:00 17.3 C 90 % 15.64 C
93 08-08-2016 07:40:00 17.3 C 90 % 15.64 C
94 08-08-2016 07:45:00 17.4 C 91 % 15.92 C
95 08-08-2016 07:50:00 17.5 C 91 % 16.01 C
96 08-08-2016 07:55:00 17.6 C 91 % 16.11 C
97 08-08-2016 08:00:00 17.7 C 91 % 16.21 C
98 08-08-2016 08:05:00 17.8 C 91 % 16.31 C
99 08-08-2016 08:10:00 17.8 C 91 % 16.31 C
100 08-08-2016 08:15:00 17.8 C 91 % 16.31 C
Sensor: Nr:Datum:Temp:Feuchte:Taupunkt:
Aussen-T/F 101 08-08-2016 08:20:00 17.9 C 90 % 16.24 C
102 08-08-2016 08:25:00 18 C 90 % 16.34 C
103 08-08-2016 08:30:00 18 C 90 % 16.34 C
104 08-08-2016 08:35:00 17.9 C 90 % 16.24 C
105 08-08-2016 08:40:00 17.9 C 90 % 16.24 C
106 08-08-2016 08:45:00 17.9 C 90 % 16.24 C
107 08-08-2016 08:50:00 18 C 90 % 16.34 C
108 08-08-2016 08:55:00 18.1 C 89 % 16.26 C
109 08-08-2016 09:00:00 18.3 C 88 % 16.28 C
110 08-08-2016 09:05:00 18.4 C 88 % 16.38 C
111 08-08-2016 09:10:00 18.7 C 86 % 16.31 C
112 08-08-2016 09:15:00 18.9 C 85 % 16.32 C
113 08-08-2016 09:20:00 19.2 C 85 % 16.62 C
114 08-08-2016 09:25:00 19.3 C 86 % 16.9 C
115 08-08-2016 09:30:00 19.4 C 85 % 16.81 C
116 08-08-2016 09:35:00 19.4 C 84 % 16.63 C
117 08-08-2016 09:40:00 19.5 C 84 % 16.72 C
118 08-08-2016 09:45:00 19.6 C 83 % 16.63 C
119 08-08-2016 09:50:00 19.7 C 82 % 16.54 C
120 08-08-2016 09:55:00 19.8 C 82 % 16.64 C
121 08-08-2016 10:00:00 19.8 C 81 % 16.45 C
122 08-08-2016 10:05:00 19.9 C 82 % 16.74 C
123 08-08-2016 10:10:00 19.9 C 83 % 16.93 C
124 08-08-2016 10:15:00 20 C 81 % 16.64 C
125 08-08-2016 10:20:00 20 C 80 % 16.44 C
Sensor: Nr:Datum:Temp:Feuchte:Taupunkt:
Aussen-T/F 126 08-08-2016 10:25:00 20.1 C 80 % 16.54 C
127 08-08-2016 10:30:00 20.3 C 80 % 16.74 C
128 08-08-2016 10:35:00 20.4 C 76 % 16.03 C
129 08-08-2016 10:40:00 20.6 C 76 % 16.22 C
130 08-08-2016 10:45:00 20.6 C 77 % 16.43 C
131 08-08-2016 10:50:00 20.6 C 77 % 16.43 C
132 08-08-2016 10:55:00 20.7 C 76 % 16.32 C
133 08-08-2016 11:00:00 20.8 C 76 % 16.41 C
134 08-08-2016 11:05:00 20.8 C 67 % 14.45 C
135 08-08-2016 11:10:00 21 C 65 % 14.17 C
136 08-08-2016 11:15:00 21.2 C 60 % 13.13 C
137 08-08-2016 11:20:00 21.4 C 58 % 12.8 C
138 08-08-2016 11:25:00 21.6 C 54 % 11.9 C
139 08-08-2016 11:30:00 21.9 C 54 % 12.18 C
140 08-08-2016 11:35:00 22 C 54 % 12.27 C
141 08-08-2016 11:40:00 22 C 53 % 11.99 C
142 08-08-2016 11:45:00 22.1 C 56 % 12.92 C
143 08-08-2016 11:50:00 21.9 C 55 % 12.46 C
144 08-08-2016 11:55:00 21.9 C 58 % 13.27 C
145 08-08-2016 12:00:00 21.9 C 55 % 12.46 C
146 08-08-2016 12:05:00 22.1 C 54 % 12.36 C
147 08-08-2016 12:10:00 22.2 C 55 % 12.73 C
148 08-08-2016 12:15:00 22.1 C 60 % 13.98 C
149 08-08-2016 12:20:00 21.9 C 56 % 12.73 C
150 08-08-2016 12:25:00 21.9 C 60 % 13.79 C
Sensor: Nr:Datum:Temp:Feuchte:Taupunkt:
Aussen-T/F 151 08-08-2016 12:30:00 21.9 C 57 % 13 C
152 08-08-2016 12:35:00 21.9 C 50 % 11.01 C
153 08-08-2016 12:40:00 22 C 56 % 12.82 C
154 08-08-2016 12:45:00 22.1 C 52 % 11.79 C
155 08-08-2016 12:50:00 22.1 C 56 % 12.92 C
156 08-08-2016 12:55:00 22.2 C 57 % 13.28 C
157 08-08-2016 13:00:00 22.2 C 58 % 13.55 C
158 08-08-2016 13:05:00 22.3 C 54 % 12.55 C
159 08-08-2016 13:10:00 22.4 C 51 % 11.77 C
160 08-08-2016 13:15:00 22.7 C 56 % 13.47 C
161 08-08-2016 13:20:00 22.8 C 55 % 13.29 C
162 08-08-2016 13:25:00 22.8 C 54 % 13.01 C
163 08-08-2016 13:30:00 22.9 C 61 % 14.98 C
164 08-08-2016 13:35:00 22.8 C 62 % 15.14 C
165 08-08-2016 13:40:00 22.8 C 62 % 15.14 C
166 08-08-2016 13:45:00 22.7 C 62 % 15.05 C
167 08-08-2016 13:50:00 22.6 C 62 % 14.95 C
168 08-08-2016 13:55:00 22.5 C 62 % 14.86 C
169 08-08-2016 14:00:00 22.4 C 63 % 15.01 C
170 08-08-2016 14:05:00 22.4 C 64 % 15.26 C
171 08-08-2016 14:10:00 22.4 C 63 % 15.01 C
172 08-08-2016 14:15:00 22.5 C 64 % 15.35 C
173 08-08-2016 14:20:00 22.6 C 63 % 15.2 C
174 08-08-2016 14:25:00 22.6 C 65 % 15.69 C
175 08-08-2016 14:30:00 22.7 C 63 % 15.3 C
Sensor: Nr:Datum:Temp:Feuchte:Taupunkt:
Aussen-T/F 176 08-08-2016 14:35:00 22.8 C 64 % 15.64 C
177 08-08-2016 14:40:00 22.8 C 64 % 15.64 C
178 08-08-2016 14:45:00 22.8 C 65 % 15.88 C
179 08-08-2016 14:50:00 22.8 C 64 % 15.64 C
180 08-08-2016 14:55:00 22.9 C 64 % 15.73 C
181 08-08-2016 15:00:00 22.9 C 62 % 15.23 C
182 08-08-2016 15:05:00 22.8 C 64 % 15.64 C
183 08-08-2016 15:10:00 22.8 C 63 % 15.39 C
184 08-08-2016 15:15:00 22.8 C 64 % 15.64 C
185 08-08-2016 15:20:00 22.7 C 63 % 15.3 C
186 08-08-2016 15:25:00 22.7 C 64 % 15.54 C
187 08-08-2016 15:30:00 22.6 C 65 % 15.69 C
188 08-08-2016 15:35:00 22.7 C 63 % 15.3 C
189 08-08-2016 15:40:00 22.7 C 63 % 15.3 C
190 08-08-2016 15:45:00 22.7 C 61 % 14.79 C
191 08-08-2016 15:50:00 22.8 C 59 % 14.37 C
192 08-08-2016 15:55:00 23.4 C 60 % 15.19 C
193 08-08-2016 16:00:00 24.1 C 57 % 15.05 C
194 08-08-2016 16:05:00 24.6 C 53 % 14.39 C
195 08-08-2016 16:10:00 24.9 C 52 % 14.37 C
196 08-08-2016 16:15:00 25.2 C 51 % 14.35 C
197 08-08-2016 16:20:00 25.3 C 54 % 15.33 C
198 08-08-2016 16:25:00 25.3 C 51 % 14.44 C
199 08-08-2016 16:30:00 25.3 C 52 % 14.74 C
200 08-08-2016 16:35:00 25.3 C 50 % 14.13 C
Sensor: Nr:Datum:Temp:Feuchte:Taupunkt:
Aussen-T/F 201 08-08-2016 16:40:00 24.8 C 56 % 15.43 C
202 08-08-2016 16:45:00 24.2 C 58 % 15.42 C
203 08-08-2016 16:50:00 23.5 C 59 % 15.03 C
204 08-08-2016 16:55:00 22.8 C 60 % 14.63 C
205 08-08-2016 17:00:00 22.1 C 63 % 14.73 C
206 08-08-2016 17:05:00 21.8 C 64 % 14.69 C
207 08-08-2016 17:10:00 21.6 C 66 % 14.98 C
208 08-08-2016 17:15:00 21.4 C 66 % 14.79 C
209 08-08-2016 17:20:00 21.3 C 66 % 14.69 C
210 08-08-2016 17:25:00 21.1 C 67 % 14.74 C
211 08-08-2016 17:30:00 21 C 67 % 14.64 C
212 08-08-2016 17:35:00 20.9 C 67 % 14.55 C
213 08-08-2016 17:40:00 20.8 C 67 % 14.45 C
214 08-08-2016 17:45:00 20.7 C 68 % 14.58 C
215 08-08-2016 17:50:00 20.6 C 68 % 14.49 C
216 08-08-2016 17:55:00 20.5 C 69 % 14.62 C
217 08-08-2016 18:00:00 20.4 C 69 % 14.52 C
218 08-08-2016 18:05:00 20.3 C 71 % 14.87 C
219 08-08-2016 18:10:00 20.3 C 68 % 14.2 C
220 08-08-2016 18:15:00 20.3 C 68 % 14.2 C
221 08-08-2016 18:20:00 20.3 C 70 % 14.65 C
222 08-08-2016 18:25:00 20.3 C 68 % 14.2 C
223 08-08-2016 18:30:00 20.3 C 68 % 14.2 C
224 08-08-2016 18:35:00 20.3 C 69 % 14.43 C
225 08-08-2016 18:40:00 20.2 C 70 % 14.56 C
Sensor: Nr:Datum:Temp:Feuchte:Taupunkt:
Aussen-T/F 226 08-08-2016 18:45:00 20.1 C 70 % 14.46 C
227 08-08-2016 18:50:00 20.1 C 71 % 14.68 C
228 08-08-2016 18:55:00 20 C 71 % 14.58 C
229 08-08-2016 19:00:00 19.9 C 71 % 14.49 C
230 08-08-2016 19:05:00 19.9 C 75 % 15.34 C
231 08-08-2016 19:10:00 19.8 C 71 % 14.39 C
232 08-08-2016 19:15:00 19.7 C 74 % 14.94 C
233 08-08-2016 19:20:00 19.6 C 71 % 14.2 C
234 08-08-2016 19:25:00 19.6 C 72 % 14.42 C
235 08-08-2016 19:30:00 19.6 C 72 % 14.42 C
236 08-08-2016 19:35:00 19.6 C 73 % 14.63 C
237 08-08-2016 19:40:00 19.6 C 73 % 14.63 C
238 08-08-2016 19:45:00 19.7 C 71 % 14.3 C
239 08-08-2016 19:50:00 19.9 C 73 % 14.92 C
240 08-08-2016 19:55:00 20.2 C 73 % 15.21 C
241 08-08-2016 20:00:00 20.3 C 74 % 15.51 C
242 08-08-2016 20:05:00 20.4 C 72 % 15.18 C
243 08-08-2016 20:10:00 20.3 C 68 % 14.2 C
244 08-08-2016 20:15:00 20.2 C 67 % 13.88 C
245 08-08-2016 20:20:00 20.1 C 69 % 14.24 C
246 08-08-2016 20:25:00 19.9 C 71 % 14.49 C
247 08-08-2016 20:30:00 19.7 C 72 % 14.51 C
248 08-08-2016 20:35:00 19.4 C 74 % 14.65 C
249 08-08-2016 20:40:00 19.1 C 75 % 14.57 C
250 08-08-2016 20:45:00 18.8 C 76 % 14.48 C
Sensor: Nr:Datum:Temp:Feuchte:Taupunkt:
Aussen-T/F 251 08-08-2016 20:50:00 18.4 C 77 % 14.3 C
252 08-08-2016 20:55:00 18.1 C 78 % 14.21 C
253 08-08-2016 21:00:00 17.8 C 80 % 14.31 C
254 08-08-2016 21:05:00 17.6 C 81 % 14.3 C
255 08-08-2016 21:10:00 17.4 C 81 % 14.11 C
256 08-08-2016 21:15:00 17.3 C 82 % 14.2 C
257 08-08-2016 21:20:00 17.2 C 82 % 14.1 C
258 08-08-2016 21:25:00 17.1 C 83 % 14.19 C
259 08-08-2016 21:30:00 16.9 C 83 % 14 C
260 08-08-2016 21:35:00 16.9 C 83 % 14 C
261 08-08-2016 21:40:00 16.8 C 84 % 14.08 C
262 08-08-2016 21:45:00 16.7 C 84 % 13.98 C
263 08-08-2016 21:50:00 16.7 C 84 % 13.98 C
264 08-08-2016 21:55:00 16.7 C 85 % 14.17 C
265 08-08-2016 22:00:00 16.7 C 85 % 14.17 C
266 08-08-2016 22:05:00 16.6 C 85 % 14.07 C
267 08-08-2016 22:10:00 16.6 C 85 % 14.07 C
268 08-08-2016 22:15:00 16.6 C 86 % 14.25 C
269 08-08-2016 22:20:00 16.6 C 86 % 14.25 C
270 08-08-2016 22:25:00 16.6 C 86 % 14.25 C
271 08-08-2016 22:30:00 16.5 C 86 % 14.15 C
272 08-08-2016 22:35:00 16.5 C 86 % 14.15 C
273 08-08-2016 22:40:00 16.4 C 86 % 14.05 C
274 08-08-2016 22:45:00 16.3 C 87 % 14.13 C
275 08-08-2016 22:50:00 16.3 C 87 % 14.13 C
Sensor: Nr:Datum:Temp:Feuchte:Taupunkt:
Aussen-T/F 276 08-08-2016 22:55:00 16.2 C 87 % 14.03 C
277 08-08-2016 23:00:00 16.2 C 87 % 14.03 C
278 08-08-2016 23:05:00 16.1 C 87 % 13.94 C
279 08-08-2016 23:10:00 16.1 C 87 % 13.94 C
280 08-08-2016 23:15:00 16.1 C 88 % 14.11 C
281 08-08-2016 23:20:00 16.1 C 88 % 14.11 C
282 08-08-2016 23:25:00 16.1 C 88 % 14.11 C
283 08-08-2016 23:30:00 16.1 C 87 % 13.94 C
284 08-08-2016 23:35:00 16.2 C 87 % 14.03 C
285 08-08-2016 23:40:00 16.4 C 85 % 13.87 C
286 08-08-2016 23:45:00 16.7 C 83 % 13.8 C
287 08-08-2016 23:50:00 16.8 C 82 % 13.71 C
288 08-08-2016 23:55:00 16.8 C 81 % 13.52 C
289 09-08-2016 00:00:00 16.8 C 80 % 13.33 C
290 09-08-2016 00:05:00 16.8 C 78 % 12.94 C
291 09-08-2016 00:10:00 16.8 C 78 % 12.94 C
292 09-08-2016 00:15:00 16.9 C 79 % 13.24 C
293 09-08-2016 00:20:00 16.9 C 79 % 13.24 C
294 09-08-2016 00:25:00 16.8 C 79 % 13.14 C
295 09-08-2016 00:30:00 16.8 C 80 % 13.33 C
296 09-08-2016 00:35:00 16.7 C 76 % 12.45 C
297 09-08-2016 00:40:00 16.7 C 77 % 12.65 C
298 09-08-2016 00:45:00 16.6 C 80 % 13.14 C
299 09-08-2016 00:50:00 16.5 C 78 % 12.65 C
300 09-08-2016 00:55:00 16.4 C 79 % 12.75 C
Sensor: Nr:Datum:Temp:Feuchte:Taupunkt:
Aussen-T/F 301 09-08-2016 01:00:00 16.4 C 78 % 12.56 C
302 09-08-2016 01:05:00 16.3 C 79 % 12.65 C
303 09-08-2016 01:10:00 16.2 C 79 % 12.56 C
304 09-08-2016 01:15:00 16.2 C 80 % 12.75 C
305 09-08-2016 01:20:00 16.1 C 80 % 12.65 C
306 09-08-2016 01:25:00 16.1 C 80 % 12.65 C
307 09-08-2016 01:30:00 16 C 81 % 12.74 C
308 09-08-2016 01:35:00 15.9 C 81 % 12.65 C
309 09-08-2016 01:40:00 15.8 C 81 % 12.55 C
310 09-08-2016 01:45:00 15.8 C 81 % 12.55 C
311 09-08-2016 01:50:00 15.7 C 82 % 12.64 C
312 09-08-2016 01:55:00 15.6 C 82 % 12.54 C
313 09-08-2016 02:00:00 15.4 C 82 % 12.35 C
314 09-08-2016 02:05:00 15.3 C 83 % 12.43 C
315 09-08-2016 02:10:00 15.2 C 82 % 12.15 C
316 09-08-2016 02:15:00 15.1 C 82 % 12.05 C
317 09-08-2016 02:20:00 15 C 83 % 12.14 C
318 09-08-2016 02:25:00 14.9 C 83 % 12.04 C
319 09-08-2016 02:30:00 14.9 C 83 % 12.04 C
320 09-08-2016 02:35:00 14.8 C 83 % 11.94 C
321 09-08-2016 02:40:00 14.8 C 82 % 11.76 C
322 09-08-2016 02:45:00 14.7 C 82 % 11.66 C
323 09-08-2016 02:50:00 14.7 C 84 % 12.03 C
324 09-08-2016 02:55:00 14.6 C 83 % 11.75 C
325 09-08-2016 03:00:00 14.6 C 83 % 11.75 C
Sensor: Nr:Datum:Temp:Feuchte:Taupunkt:
Aussen-T/F 326 09-08-2016 03:05:00 14.6 C 83 % 11.75 C
327 09-08-2016 03:10:00 14.5 C 84 % 11.83 C
328 09-08-2016 03:15:00 14.5 C 84 % 11.83 C
329 09-08-2016 03:20:00 14.5 C 84 % 11.83 C
330 09-08-2016 03:25:00 14.5 C 85 % 12.01 C
331 09-08-2016 03:30:00 14.6 C 86 % 12.29 C
332 09-08-2016 03:35:00 14.6 C 86 % 12.29 C
333 09-08-2016 03:40:00 14.6 C 86 % 12.29 C
334 09-08-2016 03:45:00 14.6 C 86 % 12.29 C
335 09-08-2016 03:50:00 14.5 C 85 % 12.01 C
336 09-08-2016 03:55:00 14.5 C 85 % 12.01 C
337 09-08-2016 04:00:00 14.5 C 86 % 12.19 C
338 09-08-2016 04:05:00 14.4 C 85 % 11.91 C
339 09-08-2016 04:10:00 14.4 C 85 % 11.91 C
340 09-08-2016 04:15:00 14.4 C 85 % 11.91 C
341 09-08-2016 04:20:00 14.4 C 86 % 12.09 C
342 09-08-2016 04:25:00 14.4 C 86 % 12.09 C
343 09-08-2016 04:30:00 14.4 C 85 % 11.91 C
344 09-08-2016 04:35:00 14.4 C 85 % 11.91 C
345 09-08-2016 04:40:00 14.4 C 85 % 11.91 C
346 09-08-2016 04:45:00 14.3 C 85 % 11.81 C
347 09-08-2016 04:50:00 14.4 C 85 % 11.91 C
348 09-08-2016 04:55:00 14.4 C 85 % 11.91 C
349 09-08-2016 05:00:00 14.3 C 85 % 11.81 C
350 09-08-2016 05:05:00 14.3 C 85 % 11.81 C
Sensor: Nr:Datum:Temp:Feuchte:Taupunkt:
Aussen-T/F 351 09-08-2016 05:10:00 14.3 C 85 % 11.81 C
352 09-08-2016 05:15:00 14.4 C 85 % 11.91 C
353 09-08-2016 05:20:00 14.3 C 85 % 11.81 C
354 09-08-2016 05:25:00 14.3 C 85 % 11.81 C
355 09-08-2016 05:30:00 14.3 C 85 % 11.81 C
356 09-08-2016 05:35:00 14.3 C 85 % 11.81 C
357 09-08-2016 05:40:00 14.2 C 85 % 11.72 C
358 09-08-2016 05:45:00 14.2 C 86 % 11.89 C
359 09-08-2016 05:50:00 14.1 C 86 % 11.8 C
360 09-08-2016 05:55:00 14.1 C 86 % 11.8 C
361 09-08-2016 06:00:00 14 C 86 % 11.7 C
362 09-08-2016 06:05:00 13.9 C 86 % 11.6 C
363 09-08-2016 06:10:00 13.9 C 86 % 11.6 C
364 09-08-2016 06:15:00 13.9 C 86 % 11.6 C
365 09-08-2016 06:20:00 13.8 C 87 % 11.68 C
366 09-08-2016 06:25:00 13.8 C 87 % 11.68 C
367 09-08-2016 06:30:00 13.8 C 87 % 11.68 C
368 09-08-2016 06:35:00 13.8 C 87 % 11.68 C
369 09-08-2016 06:40:00 13.7 C 87 % 11.58 C
370 09-08-2016 06:45:00 13.7 C 87 % 11.58 C
371 09-08-2016 06:50:00 13.7 C 87 % 11.58 C
372 09-08-2016 06:55:00 13.6 C 87 % 11.48 C
373 09-08-2016 07:00:00 13.6 C 87 % 11.48 C
374 09-08-2016 07:05:00 13.5 C 87 % 11.38 C
375 09-08-2016 07:10:00 13.4 C 87 % 11.28 C
Sensor: Nr:Datum:Temp:Feuchte:Taupunkt:
Aussen-T/F 376 09-08-2016 07:15:00 13.4 C 87 % 11.28 C
377 09-08-2016 07:20:00 13.3 C 87 % 11.18 C
378 09-08-2016 07:25:00 13.3 C 88 % 11.36 C
379 09-08-2016 07:30:00 13.3 C 88 % 11.36 C
380 09-08-2016 07:35:00 13.3 C 89 % 11.53 C
381 09-08-2016 07:40:00 13.3 C 89 % 11.53 C
382 09-08-2016 07:45:00 13.3 C 89 % 11.53 C
383 09-08-2016 07:50:00 13.4 C 90 % 11.79 C
384 09-08-2016 07:55:00 13.6 C 91 % 12.16 C
385 09-08-2016 08:00:00 13.8 C 91 % 12.36 C
386 09-08-2016 08:05:00 13.9 C 90 % 12.29 C
387 09-08-2016 08:10:00 14 C 89 % 12.22 C
388 09-08-2016 08:15:00 14.1 C 89 % 12.32 C
389 09-08-2016 08:20:00 14.2 C 89 % 12.41 C
390 09-08-2016 08:25:00 14.2 C 89 % 12.41 C
391 09-08-2016 08:30:00 14.2 C 89 % 12.41 C
392 09-08-2016 08:35:00 14.2 C 89 % 12.41 C
393 09-08-2016 08:40:00 14.2 C 89 % 12.41 C
394 09-08-2016 08:45:00 14.2 C 89 % 12.41 C
395 09-08-2016 08:50:00 14.3 C 89 % 12.51 C
396 09-08-2016 08:55:00 14.3 C 89 % 12.51 C
397 09-08-2016 09:00:00 14.4 C 89 % 12.61 C
398 09-08-2016 09:05:00 14.4 C 89 % 12.61 C
399 09-08-2016 09:10:00 14.5 C 90 % 12.88 C
400 09-08-2016 09:15:00 14.6 C 90 % 12.98 C
Sensor: Nr:Datum:Temp:Feuchte:Taupunkt:
Aussen-T/F 401 09-08-2016 09:20:00 14.7 C 87 % 12.56 C
402 09-08-2016 09:25:00 15.1 C 84 % 12.42 C
403 09-08-2016 09:30:00 15.6 C 82 % 12.54 C
404 09-08-2016 09:35:00 15.8 C 80 % 12.36 C
405 09-08-2016 09:40:00 16 C 78 % 12.17 C
406 09-08-2016 09:45:00 16.2 C 77 % 12.17 C
407 09-08-2016 09:50:00 16.3 C 76 % 12.07 C
408 09-08-2016 09:55:00 16.3 C 77 % 12.26 C
409 09-08-2016 10:00:00 16.3 C 76 % 12.07 C
410 09-08-2016 10:05:00 16.3 C 81 % 13.04 C
411 09-08-2016 10:10:00 16.2 C 82 % 13.13 C
412 09-08-2016 10:15:00 16.1 C 82 % 13.03 C
413 09-08-2016 10:20:00 16.1 C 80 % 12.65 C
414 09-08-2016 10:25:00 16.1 C 79 % 12.46 C
415 09-08-2016 10:30:00 16.2 C 77 % 12.17 C
416 09-08-2016 10:35:00 16.5 C 75 % 12.06 C
417 09-08-2016 10:40:00 16.7 C 73 % 11.84 C
418 09-08-2016 10:45:00 16.9 C 69 % 11.18 C
419 09-08-2016 10:50:00 17.1 C 69 % 11.37 C
420 09-08-2016 10:55:00 17.2 C 66 % 10.8 C
421 09-08-2016 11:00:00 17.4 C 69 % 11.66 C
422 09-08-2016 11:05:00 17.7 C 66 % 11.27 C
423 09-08-2016 11:10:00 17.9 C 66 % 11.46 C
424 09-08-2016 11:15:00 17.9 C 67 % 11.69 C
425 09-08-2016 11:20:00 17.8 C 68 % 11.82 C
Sensor: Nr:Datum:Temp:Feuchte:Taupunkt:
Aussen-T/F 426 09-08-2016 11:25:00 17.7 C 69 % 11.95 C
427 09-08-2016 11:30:00 17.8 C 68 % 11.82 C
428 09-08-2016 11:35:00 17.8 C 70 % 12.26 C
429 09-08-2016 11:40:00 17.9 C 67 % 11.69 C
430 09-08-2016 11:45:00 17.9 C 61 % 10.28 C
431 09-08-2016 11:50:00 18 C 62 % 10.62 C
432 09-08-2016 11:55:00 18.2 C 63 % 11.05 C
433 09-08-2016 12:00:00 18.3 C 63 % 11.14 C
434 09-08-2016 12:05:00 18.4 C 64 % 11.47 C
435 09-08-2016 12:10:00 18.5 C 64 % 11.57 C
436 09-08-2016 12:15:00 18.6 C 64 % 11.66 C
437 09-08-2016 12:20:00 18.6 C 62 % 11.18 C
438 09-08-2016 12:25:00 18.6 C 62 % 11.18 C
439 09-08-2016 12:30:00 18.6 C 59 % 10.44 C
440 09-08-2016 12:35:00 18.6 C 58 % 10.18 C
441 09-08-2016 12:40:00 18.5 C 58 % 10.09 C
442 09-08-2016 12:45:00 18.6 C 60 % 10.69 C
443 09-08-2016 12:50:00 18.8 C 59 % 10.63 C
444 09-08-2016 12:55:00 18.8 C 58 % 10.37 C
445 09-08-2016 13:00:00 18.9 C 58 % 10.46 C
446 09-08-2016 13:05:00 19 C 55 % 9.76 C
447 09-08-2016 13:10:00 19 C 56 % 10.03 C
448 09-08-2016 13:15:00 19.1 C 55 % 9.86 C
449 09-08-2016 13:20:00 19.3 C 54 % 9.77 C
450 09-08-2016 13:25:00 19.3 C 54 % 9.77 C
Sensor: Nr:Datum:Temp:Feuchte:Taupunkt:
Aussen-T/F 451 09-08-2016 13:30:00 19.4 C 53 % 9.58 C
452 09-08-2016 13:35:00 19.5 C 53 % 9.67 C
453 09-08-2016 13:40:00 19.6 C 52 % 9.48 C
454 09-08-2016 13:45:00 19.4 C 53 % 9.58 C
455 09-08-2016 13:50:00 19.3 C 51 % 8.92 C
456 09-08-2016 13:55:00 19.3 C 52 % 9.21 C
457 09-08-2016 14:00:00 19.3 C 53 % 9.49 C
458 09-08-2016 14:05:00 19.3 C 53 % 9.49 C
459 09-08-2016 14:10:00 19.1 C 54 % 9.58 C
460 09-08-2016 14:15:00 18.9 C 55 % 9.67 C
461 09-08-2016 14:20:00 18.8 C 55 % 9.58 C
462 09-08-2016 14:25:00 18.8 C 57 % 10.11 C
463 09-08-2016 14:30:00 18.8 C 56 % 9.84 C
464 09-08-2016 14:35:00 18.9 C 56 % 9.94 C
465 09-08-2016 14:40:00 19.2 C 55 % 9.95 C
466 09-08-2016 14:45:00 19.4 C 54 % 9.86 C
467 09-08-2016 14:50:00 19.4 C 54 % 9.86 C
468 09-08-2016 14:55:00 19.3 C 55 % 10.04 C
469 09-08-2016 15:00:00 19.2 C 55 % 9.95 C
470 09-08-2016 15:05:00 19.2 C 54 % 9.67 C
471 09-08-2016 15:10:00 19.2 C 57 % 10.48 C
472 09-08-2016 15:15:00 19.4 C 54 % 9.86 C
473 09-08-2016 15:20:00 19.5 C 57 % 10.76 C
474 09-08-2016 15:25:00 19.7 C 54 % 10.14 C
475 09-08-2016 15:30:00 19.8 C 54 % 10.23 C
Sensor: Nr:Datum:Temp:Feuchte:Taupunkt:
Aussen-T/F 476 09-08-2016 15:35:00 20.2 C 52 % 10.04 C
477 09-08-2016 15:40:00 20.6 C 51 % 10.12 C
478 09-08-2016 15:45:00 20.8 C 50 % 10 C
479 09-08-2016 15:50:00 21.1 C 49 % 9.98 C
480 09-08-2016 15:55:00 21.2 C 49 % 10.07 C
481 09-08-2016 16:00:00 21.3 C 48 % 9.85 C
482 09-08-2016 16:05:00 21.1 C 47 % 9.36 C
483 09-08-2016 16:10:00 21.1 C 45 % 8.71 C
484 09-08-2016 16:15:00 21.3 C 44 % 8.56 C
485 09-08-2016 16:20:00 21.6 C 40 % 7.43 C
486 09-08-2016 16:25:00 21.8 C 41 % 7.97 C
487 09-08-2016 16:30:00 21.9 C 40 % 7.7 C
488 09-08-2016 16:35:00 22.2 C 42 % 8.69 C
489 09-08-2016 16:40:00 22.1 C 46 % 9.95 C
490 09-08-2016 16:45:00 21.8 C 46 % 9.67 C
491 09-08-2016 16:50:00 21.3 C 49 % 10.16 C
492 09-08-2016 16:55:00 21.2 C 49 % 10.07 C
493 09-08-2016 17:00:00 20.8 C 50 % 10 C
494 09-08-2016 17:05:00 20.5 C 53 % 10.6 C
495 09-08-2016 17:10:00 20.6 C 51 % 10.12 C
496 09-08-2016 17:15:00 20.9 C 51 % 10.39 C
497 09-08-2016 17:20:00 21.3 C 52 % 11.05 C
498 09-08-2016 17:25:00 21.6 C 49 % 10.44 C
499 09-08-2016 17:30:00 21.6 C 49 % 10.44 C
500 09-08-2016 17:35:00 21.2 C 51 % 10.67 C
Sensor: Nr:Datum:Temp:Feuchte:Taupunkt:
Aussen-T/F 501 09-08-2016 17:40:00 20.3 C 55 % 10.97 C
502 09-08-2016 17:45:00 19.5 C 58 % 11.02 C
503 09-08-2016 17:50:00 18.8 C 60 % 10.88 C
504 09-08-2016 17:55:00 18.4 C 61 % 10.75 C
505 09-08-2016 18:00:00 18.1 C 62 % 10.71 C
506 09-08-2016 18:05:00 18 C 63 % 10.86 C
507 09-08-2016 18:10:00 17.9 C 63 % 10.76 C
508 09-08-2016 18:15:00 17.8 C 64 % 10.9 C
509 09-08-2016 18:20:00 17.8 C 64 % 10.9 C
510 09-08-2016 18:25:00 17.7 C 64 % 10.81 C
511 09-08-2016 18:30:00 17.7 C 64 % 10.81 C
512 09-08-2016 18:35:00 17.7 C 63 % 10.57 C
513 09-08-2016 18:40:00 17.6 C 62 % 10.24 C
514 09-08-2016 18:45:00 17.6 C 62 % 10.24 C
515 09-08-2016 18:50:00 17.6 C 64 % 10.72 C
516 09-08-2016 18:55:00 17.5 C 63 % 10.38 C
517 09-08-2016 19:00:00 17.5 C 62 % 10.15 C
518 09-08-2016 19:05:00 17.4 C 63 % 10.29 C
519 09-08-2016 19:10:00 17.4 C 62 % 10.05 C
520 09-08-2016 19:15:00 17.3 C 61 % 9.71 C
521 09-08-2016 19:20:00 17.2 C 61 % 9.62 C
522 09-08-2016 19:25:00 17.2 C 61 % 9.62 C
523 09-08-2016 19:30:00 17.1 C 61 % 9.53 C
524 09-08-2016 19:35:00 17.1 C 61 % 9.53 C
525 09-08-2016 19:40:00 17 C 62 % 9.67 C
Sensor: Nr:Datum:Temp:Feuchte:Taupunkt:
Aussen-T/F 526 09-08-2016 19:45:00 16.9 C 63 % 9.82 C
527 09-08-2016 19:50:00 16.9 C 62 % 9.58 C
528 09-08-2016 19:55:00 16.8 C 63 % 9.72 C
529 09-08-2016 20:00:00 16.8 C 63 % 9.72 C
530 09-08-2016 20:05:00 16.7 C 63 % 9.63 C
531 09-08-2016 20:10:00 16.6 C 63 % 9.53 C
532 09-08-2016 20:15:00 16.6 C 63 % 9.53 C
533 09-08-2016 20:20:00 16.6 C 64 % 9.77 C
534 09-08-2016 20:25:00 16.6 C 64 % 9.77 C
535 09-08-2016 20:30:00 16.6 C 66 % 10.23 C
536 09-08-2016 20:35:00 16.5 C 67 % 10.36 C
537 09-08-2016 20:40:00 16.4 C 66 % 10.04 C
538 09-08-2016 20:45:00 16.4 C 66 % 10.04 C
539 09-08-2016 20:50:00 16.3 C 67 % 10.17 C
540 09-08-2016 20:55:00 16.2 C 68 % 10.29 C
541 09-08-2016 21:00:00 16 C 72 % 10.96 C
542 09-08-2016 21:05:00 15.7 C 73 % 10.88 C
543 09-08-2016 21:10:00 15.3 C 74 % 10.7 C
544 09-08-2016 21:15:00 14.9 C 76 % 10.71 C
545 09-08-2016 21:20:00 14.6 C 77 % 10.62 C
546 09-08-2016 21:25:00 14.3 C 78 % 10.52 C
547 09-08-2016 21:30:00 14.2 C 79 % 10.61 C
548 09-08-2016 21:35:00 14 C 79 % 10.42 C
549 09-08-2016 21:40:00 14 C 80 % 10.61 C
550 09-08-2016 21:45:00 14.1 C 80 % 10.71 C
Sensor: Nr:Datum:Temp:Feuchte:Taupunkt:
Aussen-T/F 551 09-08-2016 21:50:00 14.1 C 77 % 10.13 C
552 09-08-2016 21:55:00 14.1 C 78 % 10.33 C
553 09-08-2016 22:00:00 14.1 C 78 % 10.33 C
554 09-08-2016 22:05:00 14.1 C 79 % 10.52 C
555 09-08-2016 22:10:00 14.1 C 77 % 10.13 C
556 09-08-2016 22:15:00 14.1 C 77 % 10.13 C
557 09-08-2016 22:20:00 14.3 C 76 % 10.13 C
558 09-08-2016 22:25:00 14.5 C 77 % 10.52 C
559 09-08-2016 22:30:00 14.6 C 78 % 10.81 C
560 09-08-2016 22:35:00 14.6 C 77 % 10.62 C
561 09-08-2016 22:40:00 14.5 C 78 % 10.71 C
562 09-08-2016 22:45:00 14.3 C 78 % 10.52 C
563 09-08-2016 22:50:00 14.1 C 79 % 10.52 C
564 09-08-2016 22:55:00 13.9 C 79 % 10.32 C
565 09-08-2016 23:00:00 13.7 C 80 % 10.32 C
566 09-08-2016 23:05:00 13.6 C 81 % 10.4 C
567 09-08-2016 23:10:00 13.5 C 82 % 10.49 C
568 09-08-2016 23:15:00 13.5 C 81 % 10.31 C
569 09-08-2016 23:20:00 13.4 C 82 % 10.39 C
570 09-08-2016 23:25:00 13.3 C 82 % 10.3 C
571 09-08-2016 23:30:00 13.2 C 82 % 10.2 C
572 09-08-2016 23:35:00 13.1 C 82 % 10.1 C
573 09-08-2016 23:40:00 13 C 83 % 10.18 C
574 09-08-2016 23:45:00 12.9 C 83 % 10.09 C
575 09-08-2016 23:50:00 12.8 C 83 % 9.99 C
Sensor: Nr:Datum:Temp:Feuchte:Taupunkt:
Aussen-T/F 576 09-08-2016 23:55:00 12.7 C 84 % 10.07 C
577 10-08-2016 00:00:00 12.6 C 84 % 9.97 C
578 10-08-2016 00:05:00 12.5 C 85 % 10.05 C
579 10-08-2016 00:10:00 12.4 C 85 % 9.95 C
580 10-08-2016 00:15:00 12.3 C 86 % 10.03 C
581 10-08-2016 00:20:00 12.3 C 85 % 9.85 C
582 10-08-2016 00:25:00 12.2 C 86 % 9.93 C
583 10-08-2016 00:30:00 12.1 C 86 % 9.83 C
584 10-08-2016 00:35:00 12.1 C 86 % 9.83 C
585 10-08-2016 00:40:00 12 C 86 % 9.73 C
586 10-08-2016 00:45:00 11.9 C 85 % 9.46 C
587 10-08-2016 00:50:00 11.8 C 86 % 9.54 C
588 10-08-2016 00:55:00 11.8 C 86 % 9.54 C
589 10-08-2016 01:00:00 11.8 C 86 % 9.54 C
590 10-08-2016 01:05:00 11.7 C 86 % 9.44 C
591 10-08-2016 01:10:00 11.7 C 86 % 9.44 C
592 10-08-2016 01:15:00 11.6 C 86 % 9.34 C
593 10-08-2016 01:20:00 11.5 C 86 % 9.24 C
594 10-08-2016 01:25:00 11.4 C 86 % 9.14 C
595 10-08-2016 01:30:00 11.4 C 87 % 9.32 C
596 10-08-2016 01:35:00 11.3 C 87 % 9.22 C
597 10-08-2016 01:40:00 11.2 C 87 % 9.12 C
598 10-08-2016 01:45:00 11.2 C 87 % 9.12 C
599 10-08-2016 01:50:00 11.1 C 87 % 9.02 C
600 10-08-2016 01:55:00 10.9 C 87 % 8.82 C
Sensor: Nr:Datum:Temp:Feuchte:Taupunkt:
Aussen-T/F 601 10-08-2016 02:00:00 10.8 C 87 % 8.73 C
602 10-08-2016 02:05:00 10.7 C 88 % 8.8 C
603 10-08-2016 02:10:00 10.6 C 88 % 8.7 C
604 10-08-2016 02:15:00 10.5 C 88 % 8.6 C
605 10-08-2016 02:20:00 10.3 C 89 % 8.57 C
606 10-08-2016 02:25:00 10.3 C 89 % 8.57 C
607 10-08-2016 02:30:00 10.2 C 89 % 8.47 C
608 10-08-2016 02:35:00 10.2 C 90 % 8.64 C
609 10-08-2016 02:40:00 10.2 C 90 % 8.64 C
610 10-08-2016 02:45:00 10.2 C 91 % 8.8 C
611 10-08-2016 02:50:00 10.2 C 91 % 8.8 C
612 10-08-2016 02:55:00 10.2 C 90 % 8.64 C
613 10-08-2016 03:00:00 10.1 C 90 % 8.54 C
614 10-08-2016 03:05:00 10.1 C 91 % 8.7 C
615 10-08-2016 03:10:00 10 C 91 % 8.6 C
616 10-08-2016 03:15:00 9.9 C 91 % 8.5 C
617 10-08-2016 03:20:00 9.9 C 91 % 8.5 C
618 10-08-2016 03:25:00 9.8 C 91 % 8.4 C
619 10-08-2016 03:30:00 9.8 C 91 % 8.4 C
620 10-08-2016 03:35:00 9.8 C 91 % 8.4 C
621 10-08-2016 03:40:00 9.8 C 91 % 8.4 C
622 10-08-2016 03:45:00 9.8 C 92 % 8.56 C
623 10-08-2016 03:50:00 9.8 C 92 % 8.56 C
624 10-08-2016 03:55:00 9.8 C 92 % 8.56 C
625 10-08-2016 04:00:00 9.9 C 93 % 8.82 C
Sensor: Nr:Datum:Temp:Feuchte:Taupunkt:
Aussen-T/F 626 10-08-2016 04:05:00 10 C 93 % 8.92 C
627 10-08-2016 04:10:00 10 C 93 % 8.92 C
628 10-08-2016 04:15:00 10.1 C 93 % 9.02 C
629 10-08-2016 04:20:00 10.2 C 93 % 9.12 C
630 10-08-2016 04:25:00 10.2 C 93 % 9.12 C
631 10-08-2016 04:30:00 10.2 C 92 % 8.96 C
632 10-08-2016 04:35:00 10.2 C 92 % 8.96 C
633 10-08-2016 04:40:00 10.2 C 93 % 9.12 C
634 10-08-2016 04:45:00 10.3 C 93 % 9.22 C
635 10-08-2016 04:50:00 10.3 C 93 % 9.22 C
636 10-08-2016 04:55:00 10.3 C 93 % 9.22 C
637 10-08-2016 05:00:00 10.3 C 93 % 9.22 C
638 10-08-2016 05:05:00 10.4 C 93 % 9.32 C
639 10-08-2016 05:10:00 10.4 C 92 % 9.16 C
640 10-08-2016 05:15:00 10.4 C 92 % 9.16 C
641 10-08-2016 05:20:00 10.4 C 92 % 9.16 C
642 10-08-2016 05:25:00 10.4 C 92 % 9.16 C
643 10-08-2016 05:30:00 10.4 C 92 % 9.16 C
644 10-08-2016 05:35:00 10.4 C 92 % 9.16 C
645 10-08-2016 05:40:00 10.4 C 92 % 9.16 C
646 10-08-2016 05:45:00 10.4 C 92 % 9.16 C
647 10-08-2016 05:50:00 10.4 C 92 % 9.16 C
648 10-08-2016 05:55:00 10.4 C 92 % 9.16 C
649 10-08-2016 06:00:00 10.4 C 92 % 9.16 C
650 10-08-2016 06:05:00 10.4 C 92 % 9.16 C
Sensor: Nr:Datum:Temp:Feuchte:Taupunkt:
Aussen-T/F 651 10-08-2016 06:10:00 10.3 C 92 % 9.06 C
652 10-08-2016 06:15:00 10.3 C 92 % 9.06 C
653 10-08-2016 06:20:00 10.3 C 92 % 9.06 C
654 10-08-2016 06:25:00 10.3 C 92 % 9.06 C
655 10-08-2016 06:30:00 10.3 C 92 % 9.06 C
656 10-08-2016 06:35:00 10.3 C 93 % 9.22 C
657 10-08-2016 06:40:00 10.3 C 93 % 9.22 C
658 10-08-2016 06:45:00 10.3 C 93 % 9.22 C
659 10-08-2016 06:50:00 10.3 C 93 % 9.22 C
660 10-08-2016 06:55:00 10.3 C 93 % 9.22 C
661 10-08-2016 07:00:00 10.3 C 93 % 9.22 C
662 10-08-2016 07:05:00 10.4 C 93 % 9.32 C
663 10-08-2016 07:10:00 10.4 C 93 % 9.32 C
664 10-08-2016 07:15:00 10.5 C 93 % 9.42 C
665 10-08-2016 07:20:00 10.5 C 93 % 9.42 C
666 10-08-2016 07:25:00 10.6 C 93 % 9.52 C
667 10-08-2016 07:30:00 10.6 C 93 % 9.52 C
668 10-08-2016 07:35:00 10.6 C 93 % 9.52 C
669 10-08-2016 07:40:00 10.7 C 93 % 9.62 C
670 10-08-2016 07:45:00 10.7 C 93 % 9.62 C
671 10-08-2016 07:50:00 10.8 C 93 % 9.71 C
672 10-08-2016 07:55:00 10.9 C 93 % 9.81 C
673 10-08-2016 08:00:00 10.9 C 92 % 9.65 C
674 10-08-2016 08:05:00 11 C 92 % 9.75 C
675 10-08-2016 08:10:00 11.1 C 92 % 9.85 C
Sensor: Nr:Datum:Temp:Feuchte:Taupunkt:
Aussen-T/F 676 10-08-2016 08:15:00 11.2 C 92 % 9.95 C
677 10-08-2016 08:20:00 11.2 C 92 % 9.95 C
678 10-08-2016 08:25:00 11.4 C 92 % 10.15 C
679 10-08-2016 08:30:00 11.5 C 91 % 10.08 C
680 10-08-2016 08:35:00 11.7 C 90 % 10.12 C
681 10-08-2016 08:40:00 11.8 C 90 % 10.21 C
682 10-08-2016 08:45:00 11.8 C 89 % 10.05 C
683 10-08-2016 08:50:00 11.9 C 90 % 10.31 C
684 10-08-2016 08:55:00 12.1 C 90 % 10.51 C
685 10-08-2016 09:00:00 12.2 C 89 % 10.44 C
686 10-08-2016 09:05:00 12.3 C 89 % 10.54 C
687 10-08-2016 09:10:00 12.4 C 88 % 10.47 C
688 10-08-2016 09:15:00 12.7 C 87 % 10.59 C
689 10-08-2016 09:20:00 12.8 C 87 % 10.69 C
690 10-08-2016 09:25:00 13.1 C 87 % 10.99 C
691 10-08-2016 09:30:00 13.3 C 86 % 11.01 C
692 10-08-2016 09:35:00 13.4 C 84 % 10.75 C
693 10-08-2016 09:40:00 13.6 C 83 % 10.77 C
694 10-08-2016 09:45:00 13.6 C 84 % 10.95 C
695 10-08-2016 09:50:00 13.6 C 83 % 10.77 C
696 10-08-2016 09:55:00 13.6 C 83 % 10.77 C
697 10-08-2016 10:00:00 13.6 C 83 % 10.77 C
698 10-08-2016 10:05:00 13.6 C 82 % 10.59 C
699 10-08-2016 10:10:00 13.5 C 83 % 10.67 C
700 10-08-2016 10:15:00 13.4 C 82 % 10.39 C
Sensor: Nr:Datum:Temp:Feuchte:Taupunkt:
Aussen-T/F 701 10-08-2016 10:20:00 13.3 C 82 % 10.3 C
702 10-08-2016 10:25:00 12.9 C 83 % 10.09 C
703 10-08-2016 10:30:00 12.6 C 84 % 9.97 C
704 10-08-2016 10:35:00 12.2 C 86 % 9.93 C
705 10-08-2016 10:40:00 11.9 C 87 % 9.81 C
706 10-08-2016 10:45:00 11.7 C 87 % 9.61 C
707 10-08-2016 10:50:00 11.5 C 88 % 9.58 C
708 10-08-2016 10:55:00 11.4 C 89 % 9.65 C
709 10-08-2016 11:00:00 11.3 C 90 % 9.72 C
710 10-08-2016 11:05:00 11.3 C 90 % 9.72 C
711 10-08-2016 11:10:00 11.3 C 91 % 9.89 C
712 10-08-2016 11:15:00 11.4 C 92 % 10.15 C
713 10-08-2016 11:20:00 11.6 C 92 % 10.35 C
714 10-08-2016 11:25:00 11.7 C 92 % 10.44 C
715 10-08-2016 11:30:00 11.6 C 90 % 10.02 C
716 10-08-2016 11:35:00 11.6 C 90 % 10.02 C
717 10-08-2016 11:40:00 11.8 C 91 % 10.38 C
718 10-08-2016 11:45:00 11.9 C 91 % 10.48 C
719 10-08-2016 11:50:00 12 C 91 % 10.58 C
720 10-08-2016 11:55:00 12.2 C 91 % 10.78 C
721 10-08-2016 12:00:00 12.3 C 90 % 10.71 C
722 10-08-2016 12:05:00 12.3 C 89 % 10.54 C
723 10-08-2016 12:10:00 12.3 C 88 % 10.37 C
724 10-08-2016 12:15:00 12.4 C 88 % 10.47 C
725 10-08-2016 12:20:00 12.6 C 88 % 10.67 C
Sensor: Nr:Datum:Temp:Feuchte:Taupunkt:
Aussen-T/F 726 10-08-2016 12:25:00 12.8 C 89 % 11.03 C
727 10-08-2016 12:30:00 12.9 C 87 % 10.79 C
728 10-08-2016 12:35:00 13.1 C 88 % 11.16 C
729 10-08-2016 12:40:00 13.3 C 87 % 11.18 C
730 10-08-2016 12:45:00 13.5 C 87 % 11.38 C
731 10-08-2016 12:50:00 13.7 C 87 % 11.58 C
732 10-08-2016 12:55:00 13.7 C 84 % 11.05 C
733 10-08-2016 13:00:00 13.8 C 85 % 11.32 C
734 10-08-2016 13:05:00 13.9 C 83 % 11.06 C
735 10-08-2016 13:10:00 14.1 C 81 % 10.89 C
736 10-08-2016 13:15:00 14.1 C 80 % 10.71 C
737 10-08-2016 13:20:00 14.1 C 81 % 10.89 C
738 10-08-2016 13:25:00 14.2 C 78 % 10.42 C
739 10-08-2016 13:30:00 14.3 C 80 % 10.9 C
740 10-08-2016 13:35:00 14.4 C 77 % 10.42 C
741 10-08-2016 13:40:00 14.6 C 74 % 10.02 C
742 10-08-2016 13:45:00 14.7 C 74 % 10.12 C
743 10-08-2016 13:50:00 14.8 C 73 % 10.01 C
744 10-08-2016 13:55:00 14.9 C 73 % 10.11 C
745 10-08-2016 14:00:00 15 C 73 % 10.2 C
746 10-08-2016 14:05:00 15.1 C 72 % 10.09 C
747 10-08-2016 14:10:00 15.1 C 72 % 10.09 C
748 10-08-2016 14:15:00 15.2 C 74 % 10.6 C
749 10-08-2016 14:20:00 15.4 C 72 % 10.38 C
750 10-08-2016 14:25:00 15.6 C 72 % 10.57 C
Sensor: Nr:Datum:Temp:Feuchte:Taupunkt:
Aussen-T/F 751 10-08-2016 14:30:00 15.6 C 71 % 10.37 C
752 10-08-2016 14:35:00 15.5 C 73 % 10.69 C
753 10-08-2016 14:40:00 15.5 C 71 % 10.27 C
754 10-08-2016 14:45:00 15.6 C 67 % 9.5 C
755 10-08-2016 14:50:00 15.8 C 69 % 10.13 C
756 10-08-2016 14:55:00 16 C 66 % 9.66 C
757 10-08-2016 15:00:00 16.2 C 65 % 9.62 C
758 10-08-2016 15:05:00 16.1 C 66 % 9.75 C
759 10-08-2016 15:10:00 16.1 C 68 % 10.2 C
760 10-08-2016 15:15:00 16.2 C 66 % 9.85 C
761 10-08-2016 15:20:00 16.4 C 67 % 10.26 C
762 10-08-2016 15:25:00 16.7 C 64 % 9.86 C
763 10-08-2016 15:30:00 16.6 C 63 % 9.53 C
764 10-08-2016 15:35:00 16.6 C 64 % 9.77 C
765 10-08-2016 15:40:00 16.6 C 65 % 10 C
766 10-08-2016 15:45:00 16.8 C 63 % 9.72 C
767 10-08-2016 15:50:00 17.3 C 67 % 11.12 C
768 10-08-2016 15:55:00 17.4 C 62 % 10.05 C
769 10-08-2016 16:00:00 17.2 C 63 % 10.1 C
770 10-08-2016 16:05:00 17.1 C 63 % 10.01 C
771 10-08-2016 16:10:00 17.4 C 62 % 10.05 C
772 10-08-2016 16:15:00 18 C 63 % 10.86 C
773 10-08-2016 16:20:00 18.2 C 59 % 10.06 C
774 10-08-2016 16:25:00 18 C 58 % 9.62 C
775 10-08-2016 16:30:00 17.7 C 58 % 9.34 C
Sensor: Nr:Datum:Temp:Feuchte:Taupunkt:
Aussen-T/F 776 10-08-2016 16:35:00 17.9 C 57 % 9.27 C
777 10-08-2016 16:40:00 18.3 C 58 % 9.9 C
778 10-08-2016 16:45:00 18.8 C 56 % 9.84 C
779 10-08-2016 16:50:00 18.6 C 55 % 9.39 C
780 10-08-2016 16:55:00 18.7 C 49 % 7.78 C
781 10-08-2016 17:00:00 18.7 C 50 % 8.08 C
782 10-08-2016 17:05:00 18.8 C 49 % 7.87 C
783 10-08-2016 17:10:00 18.9 C 47 % 7.35 C
784 10-08-2016 17:15:00 19 C 48 % 7.75 C
785 10-08-2016 17:20:00 19.2 C 49 % 8.24 C
786 10-08-2016 17:25:00 19.2 C 48 % 7.93 C
787 10-08-2016 17:30:00 18.9 C 45 % 6.72 C
788 10-08-2016 17:35:00 18.6 C 48 % 7.39 C
789 10-08-2016 17:40:00 18.7 C 51 % 8.37 C
790 10-08-2016 17:45:00 18.7 C 52 % 8.65 C
791 10-08-2016 17:50:00 18.7 C 53 % 8.93 C
792 10-08-2016 17:55:00 18.3 C 53 % 8.56 C
793 10-08-2016 18:00:00 17.9 C 55 % 8.74 C
794 10-08-2016 18:05:00 17.5 C 56 % 8.63 C
795 10-08-2016 18:10:00 17.4 C 56 % 8.54 C
796 10-08-2016 18:15:00 17.6 C 58 % 9.25 C
797 10-08-2016 18:20:00 17.8 C 56 % 8.91 C
798 10-08-2016 18:25:00 17.8 C 56 % 8.91 C
799 10-08-2016 18:30:00 17.6 C 56 % 8.73 C
800 10-08-2016 18:35:00 17.3 C 56 % 8.45 C
Sensor: Nr:Datum:Temp:Feuchte:Taupunkt:
Aussen-T/F 801 10-08-2016 18:40:00 17.3 C 56 % 8.45 C
802 10-08-2016 18:45:00 17.6 C 56 % 8.73 C
803 10-08-2016 18:50:00 17.7 C 55 % 8.55 C
804 10-08-2016 18:55:00 17.7 C 56 % 8.82 C
805 10-08-2016 19:00:00 17.6 C 56 % 8.73 C
806 10-08-2016 19:05:00 17.4 C 55 % 8.28 C
807 10-08-2016 19:10:00 17.1 C 57 % 8.52 C
808 10-08-2016 19:15:00 16.8 C 60 % 9 C
809 10-08-2016 19:20:00 16.3 C 64 % 9.48 C
810 10-08-2016 19:25:00 15.8 C 66 % 9.47 C
811 10-08-2016 19:30:00 15.4 C 67 % 9.31 C
812 10-08-2016 19:35:00 15.3 C 69 % 9.65 C
813 10-08-2016 19:40:00 15.2 C 68 % 9.34 C
814 10-08-2016 19:45:00 14.9 C 69 % 9.27 C
815 10-08-2016 19:50:00 14.8 C 69 % 9.17 C
816 10-08-2016 19:55:00 14.8 C 69 % 9.17 C
817 10-08-2016 20:00:00 14.8 C 69 % 9.17 C
818 10-08-2016 20:05:00 14.7 C 69 % 9.08 C
819 10-08-2016 20:10:00 14.8 C 69 % 9.17 C
820 10-08-2016 20:15:00 14.8 C 68 % 8.96 C
821 10-08-2016 20:20:00 14.8 C 67 % 8.74 C
822 10-08-2016 20:25:00 14.8 C 67 % 8.74 C
823 10-08-2016 20:30:00 14.7 C 71 % 9.5 C
824 10-08-2016 20:35:00 14.7 C 73 % 9.92 C
825 10-08-2016 20:40:00 14.6 C 75 % 10.22 C
Sensor: Nr:Datum:Temp:Feuchte:Taupunkt:
Aussen-T/F 826 10-08-2016 20:45:00 14.4 C 74 % 9.83 C
827 10-08-2016 20:50:00 14.2 C 72 % 9.23 C
828 10-08-2016 20:55:00 13.9 C 73 % 9.15 C
829 10-08-2016 21:00:00 13.7 C 73 % 8.95 C
830 10-08-2016 21:05:00 13.6 C 71 % 8.45 C
831 10-08-2016 21:10:00 13.5 C 74 % 8.96 C
832 10-08-2016 21:15:00 13.4 C 75 % 9.06 C
833 10-08-2016 21:20:00 13.3 C 76 % 9.16 C
834 10-08-2016 21:25:00 13.1 C 76 % 8.97 C
835 10-08-2016 21:30:00 12.9 C 77 % 8.97 C
836 10-08-2016 21:35:00 12.7 C 78 % 8.97 C
837 10-08-2016 21:40:00 12.5 C 78 % 8.77 C
838 10-08-2016 21:45:00 12.3 C 79 % 8.77 C
839 10-08-2016 21:50:00 12.1 C 79 % 8.57 C
840 10-08-2016 21:55:00 11.9 C 80 % 8.56 C
841 10-08-2016 22:00:00 11.8 C 80 % 8.47 C
842 10-08-2016 22:05:00 11.7 C 81 % 8.55 C
843 10-08-2016 22:10:00 11.6 C 81 % 8.45 C
844 10-08-2016 22:15:00 11.4 C 81 % 8.26 C
845 10-08-2016 22:20:00 11.3 C 82 % 8.34 C
846 10-08-2016 22:25:00 11.3 C 82 % 8.34 C
847 10-08-2016 22:30:00 11.2 C 83 % 8.42 C
848 10-08-2016 22:35:00 11.1 C 83 % 8.33 C
849 10-08-2016 22:40:00 11 C 83 % 8.23 C
850 10-08-2016 22:45:00 10.9 C 84 % 8.31 C
Sensor: Nr:Datum:Temp:Feuchte:Taupunkt:
Aussen-T/F 851 10-08-2016 22:50:00 10.8 C 84 % 8.21 C
852 10-08-2016 22:55:00 10.7 C 84 % 8.11 C
853 10-08-2016 23:00:00 10.6 C 85 % 8.19 C
854 10-08-2016 23:05:00 10.5 C 85 % 8.09 C
855 10-08-2016 23:10:00 10.4 C 85 % 7.99 C
856 10-08-2016 23:15:00 10.3 C 86 % 8.06 C
857 10-08-2016 23:20:00 10.3 C 86 % 8.06 C
858 10-08-2016 23:25:00 10.2 C 86 % 7.97 C
859 10-08-2016 23:30:00 10.2 C 87 % 8.14 C
860 10-08-2016 23:35:00 10.1 C 87 % 8.04 C
861 10-08-2016 23:40:00 10 C 87 % 7.94 C
862 10-08-2016 23:45:00 9.9 C 87 % 7.84 C
863 10-08-2016 23:50:00 9.8 C 87 % 7.74 C
864 10-08-2016 23:55:00 9.7 C 88 % 7.81 C
865 11-08-2016 00:00:00 9.6 C 88 % 7.71 C
866 11-08-2016 00:05:00 9.5 C 88 % 7.61 C
867 11-08-2016 00:10:00 9.4 C 89 % 7.68 C
868 11-08-2016 00:15:00 9.3 C 89 % 7.58 C
869 11-08-2016 00:20:00 9.2 C 89 % 7.48 C
870 11-08-2016 00:25:00 9.2 C 89 % 7.48 C
871 11-08-2016 00:30:00 9.1 C 90 % 7.55 C
872 11-08-2016 00:35:00 9.1 C 90 % 7.55 C
873 11-08-2016 00:40:00 9 C 90 % 7.45 C
874 11-08-2016 00:45:00 8.9 C 90 % 7.35 C
875 11-08-2016 00:50:00 8.8 C 90 % 7.25 C
Sensor: Nr:Datum:Temp:Feuchte:Taupunkt:
Aussen-T/F 876 11-08-2016 00:55:00 8.8 C 91 % 7.41 C
877 11-08-2016 01:00:00 8.7 C 91 % 7.32 C
878 11-08-2016 01:05:00 8.7 C 91 % 7.32 C
879 11-08-2016 01:10:00 8.6 C 91 % 7.22 C
880 11-08-2016 01:15:00 8.6 C 91 % 7.22 C
881 11-08-2016 01:20:00 8.5 C 91 % 7.12 C
882 11-08-2016 01:25:00 8.5 C 91 % 7.12 C
883 11-08-2016 01:30:00 8.4 C 92 % 7.18 C
884 11-08-2016 01:35:00 8.4 C 92 % 7.18 C
885 11-08-2016 01:40:00 8.4 C 92 % 7.18 C
886 11-08-2016 01:45:00 8.3 C 92 % 7.08 C
887 11-08-2016 01:50:00 8.3 C 92 % 7.08 C
888 11-08-2016 01:55:00 8.3 C 92 % 7.08 C
889 11-08-2016 02:00:00 8.3 C 92 % 7.08 C
890 11-08-2016 02:05:00 8.3 C 93 % 7.24 C
891 11-08-2016 02:10:00 8.3 C 93 % 7.24 C
892 11-08-2016 02:15:00 8.3 C 93 % 7.24 C
893 11-08-2016 02:20:00 8.3 C 93 % 7.24 C
894 11-08-2016 02:25:00 8.2 C 93 % 7.14 C
895 11-08-2016 02:30:00 8.2 C 93 % 7.14 C
896 11-08-2016 02:35:00 8.1 C 93 % 7.04 C
897 11-08-2016 02:40:00 8.1 C 93 % 7.04 C
898 11-08-2016 02:45:00 8 C 93 % 6.94 C
899 11-08-2016 02:50:00 8 C 93 % 6.94 C
900 11-08-2016 02:55:00 8 C 93 % 6.94 C
Sensor: Nr:Datum:Temp:Feuchte:Taupunkt:
Aussen-T/F 901 11-08-2016 03:00:00 8.1 C 93 % 7.04 C
902 11-08-2016 03:05:00 8.1 C 94 % 7.19 C
903 11-08-2016 03:10:00 8 C 93 % 6.94 C
904 11-08-2016 03:15:00 7.9 C 93 % 6.84 C
905 11-08-2016 03:20:00 7.9 C 93 % 6.84 C
906 11-08-2016 03:25:00 7.8 C 93 % 6.74 C
907 11-08-2016 03:30:00 7.8 C 93 % 6.74 C
908 11-08-2016 03:35:00 7.8 C 93 % 6.74 C
909 11-08-2016 03:40:00 7.8 C 94 % 6.9 C
910 11-08-2016 03:45:00 7.8 C 94 % 6.9 C
911 11-08-2016 03:50:00 7.7 C 94 % 6.8 C
912 11-08-2016 03:55:00 7.7 C 94 % 6.8 C
913 11-08-2016 04:00:00 7.7 C 94 % 6.8 C
914 11-08-2016 04:05:00 7.6 C 94 % 6.7 C
915 11-08-2016 04:10:00 7.6 C 94 % 6.7 C
916 11-08-2016 04:15:00 7.5 C 94 % 6.6 C
917 11-08-2016 04:20:00 7.4 C 94 % 6.5 C
918 11-08-2016 04:25:00 7.4 C 94 % 6.5 C
919 11-08-2016 04:30:00 7.3 C 94 % 6.4 C
920 11-08-2016 04:35:00 7.3 C 94 % 6.4 C
921 11-08-2016 04:40:00 7.3 C 94 % 6.4 C
922 11-08-2016 04:45:00 7.3 C 94 % 6.4 C
923 11-08-2016 04:50:00 7.3 C 94 % 6.4 C
924 11-08-2016 04:55:00 7.3 C 94 % 6.4 C
925 11-08-2016 05:00:00 7.2 C 94 % 6.3 C
Sensor: Nr:Datum:Temp:Feuchte:Taupunkt:
Aussen-T/F 926 11-08-2016 05:05:00 7.2 C 94 % 6.3 C
927 11-08-2016 05:10:00 7.1 C 94 % 6.2 C
928 11-08-2016 05:15:00 7.1 C 94 % 6.2 C
929 11-08-2016 05:20:00 7.1 C 94 % 6.2 C
930 11-08-2016 05:25:00 7.1 C 94 % 6.2 C
931 11-08-2016 05:30:00 7.1 C 94 % 6.2 C
932 11-08-2016 05:35:00 7.1 C 94 % 6.2 C
933 11-08-2016 05:40:00 7 C 94 % 6.1 C
934 11-08-2016 05:45:00 7 C 94 % 6.1 C
935 11-08-2016 05:50:00 6.9 C 95 % 6.16 C
936 11-08-2016 05:55:00 7 C 95 % 6.26 C
937 11-08-2016 06:00:00 7 C 95 % 6.26 C
938 11-08-2016 06:05:00 6.9 C 95 % 6.16 C
939 11-08-2016 06:10:00 6.9 C 95 % 6.16 C
940 11-08-2016 06:15:00 6.9 C 95 % 6.16 C
941 11-08-2016 06:20:00 6.9 C 95 % 6.16 C
942 11-08-2016 06:25:00 6.9 C 95 % 6.16 C
943 11-08-2016 06:30:00 6.9 C 95 % 6.16 C
944 11-08-2016 06:35:00 6.9 C 95 % 6.16 C
945 11-08-2016 06:40:00 6.9 C 95 % 6.16 C
946 11-08-2016 06:45:00 6.9 C 95 % 6.16 C
947 11-08-2016 06:50:00 6.9 C 95 % 6.16 C
948 11-08-2016 06:55:00 6.8 C 95 % 6.06 C
949 11-08-2016 07:00:00 6.8 C 95 % 6.06 C
950 11-08-2016 07:05:00 6.9 C 95 % 6.16 C
Sensor: Nr:Datum:Temp:Feuchte:Taupunkt:
Aussen-T/F 951 11-08-2016 07:10:00 6.9 C 95 % 6.16 C
952 11-08-2016 07:15:00 7 C 95 % 6.26 C
953 11-08-2016 07:20:00 7 C 95 % 6.26 C
954 11-08-2016 07:25:00 7.1 C 95 % 6.35 C
955 11-08-2016 07:30:00 7.1 C 95 % 6.35 C
956 11-08-2016 07:35:00 7.2 C 95 % 6.45 C
957 11-08-2016 07:40:00 7.3 C 95 % 6.55 C
958 11-08-2016 07:45:00 7.4 C 96 % 6.8 C
959 11-08-2016 07:50:00 7.6 C 96 % 7 C
960 11-08-2016 07:55:00 7.7 C 96 % 7.1 C
961 11-08-2016 08:00:00 7.8 C 96 % 7.2 C
962 11-08-2016 08:05:00 7.9 C 96 % 7.3 C
963 11-08-2016 08:10:00 8.1 C 96 % 7.5 C
964 11-08-2016 08:15:00 8.3 C 96 % 7.7 C
965 11-08-2016 08:20:00 8.5 C 96 % 7.9 C
966 11-08-2016 08:25:00 8.7 C 96 % 8.1 C
967 11-08-2016 08:30:00 8.8 C 96 % 8.2 C
968 11-08-2016 08:35:00 9 C 96 % 8.4 C
969 11-08-2016 08:40:00 9.2 C 96 % 8.6 C
970 11-08-2016 08:45:00 9.3 C 95 % 8.54 C
971 11-08-2016 08:50:00 9.5 C 95 % 8.74 C
972 11-08-2016 08:55:00 9.6 C 95 % 8.84 C
973 11-08-2016 09:00:00 9.7 C 95 % 8.94 C
974 11-08-2016 09:05:00 9.8 C 94 % 8.88 C
975 11-08-2016 09:10:00 9.9 C 94 % 8.98 C
Sensor: Nr:Datum:Temp:Feuchte:Taupunkt:
Aussen-T/F 976 11-08-2016 09:15:00 10.1 C 93 % 9.02 C
977 11-08-2016 09:20:00 10.2 C 92 % 8.96 C
978 11-08-2016 09:25:00 10.3 C 92 % 9.06 C
979 11-08-2016 09:30:00 10.6 C 92 % 9.36 C
980 11-08-2016 09:35:00 10.7 C 91 % 9.29 C
981 11-08-2016 09:40:00 10.9 C 91 % 9.49 C
982 11-08-2016 09:45:00 11.2 C 90 % 9.62 C
983 11-08-2016 09:50:00 11.4 C 89 % 9.65 C
984 11-08-2016 09:55:00 11.7 C 89 % 9.95 C
985 11-08-2016 10:00:00 11.8 C 88 % 9.88 C
986 11-08-2016 10:05:00 11.9 C 88 % 9.98 C
987 11-08-2016 10:10:00 12 C 88 % 10.08 C
988 11-08-2016 10:15:00 12.1 C 87 % 10 C
989 11-08-2016 10:20:00 12.2 C 87 % 10.1 C
990 11-08-2016 10:25:00 12.2 C 87 % 10.1 C
991 11-08-2016 10:30:00 12.3 C 86 % 10.03 C
992 11-08-2016 10:35:00 12.6 C 85 % 10.15 C
993 11-08-2016 10:40:00 12.8 C 85 % 10.34 C
994 11-08-2016 10:45:00 13.1 C 82 % 10.1 C
995 11-08-2016 10:50:00 13.3 C 82 % 10.3 C
996 11-08-2016 10:55:00 13.6 C 81 % 10.4 C
997 11-08-2016 11:00:00 13.8 C 79 % 10.22 C
998 11-08-2016 11:05:00 14 C 79 % 10.42 C
999 11-08-2016 11:10:00 14.1 C 76 % 9.94 C
1000 11-08-2016 11:15:00 14.2 C 75 % 9.84 C
Sensor: Nr:Datum:Temp:Feuchte:Taupunkt:
Aussen-T/F 1001 11-08-2016 11:20:00 14.4 C 72 % 9.42 C
1002 11-08-2016 11:25:00 14.5 C 71 % 9.31 C
1003 11-08-2016 11:30:00 14.7 C 71 % 9.5 C
1004 11-08-2016 11:35:00 14.9 C 74 % 10.31 C
1005 11-08-2016 11:40:00 15 C 71 % 9.79 C
1006 11-08-2016 11:45:00 15.1 C 67 % 9.02 C
1007 11-08-2016 11:50:00 15.1 C 67 % 9.02 C
1008 11-08-2016 11:55:00 15.2 C 65 % 8.67 C
1009 11-08-2016 12:00:00 15.2 C 68 % 9.34 C
1010 11-08-2016 12:05:00 15.3 C 63 % 8.31 C
1011 11-08-2016 12:10:00 15.5 C 66 % 9.18 C
1012 11-08-2016 12:15:00 15.7 C 63 % 8.68 C
1013 11-08-2016 12:20:00 15.9 C 65 % 9.34 C
1014 11-08-2016 12:25:00 16.2 C 60 % 8.43 C
1015 11-08-2016 12:30:00 16.4 C 59 % 8.38 C
1016 11-08-2016 12:35:00 16.6 C 58 % 8.31 C
1017 11-08-2016 12:40:00 16.6 C 59 % 8.56 C
1018 11-08-2016 12:45:00 16.7 C 60 % 8.9 C
1019 11-08-2016 12:50:00 16.8 C 61 % 9.24 C
1020 11-08-2016 12:55:00 16.8 C 59 % 8.75 C
1021 11-08-2016 13:00:00 17 C 60 % 9.19 C
1022 11-08-2016 13:05:00 17.1 C 63 % 10.01 C
1023 11-08-2016 13:10:00 17.2 C 60 % 9.37 C
1024 11-08-2016 13:15:00 17.3 C 59 % 9.22 C
1025 11-08-2016 13:20:00 17.5 C 59 % 9.41 C
Sensor: Nr:Datum:Temp:Feuchte:Taupunkt:
Aussen-T/F 1026 11-08-2016 13:25:00 17.5 C 60 % 9.66 C
1027 11-08-2016 13:30:00 17.5 C 60 % 9.66 C
1028 11-08-2016 13:35:00 17.5 C 63 % 10.38 C
1029 11-08-2016 13:40:00 17.6 C 62 % 10.24 C
1030 11-08-2016 13:45:00 17.5 C 66 % 11.08 C
1031 11-08-2016 13:50:00 17.6 C 67 % 11.4 C
1032 11-08-2016 13:55:00 17.6 C 66 % 11.18 C
1033 11-08-2016 14:00:00 17.7 C 66 % 11.27 C
1034 11-08-2016 14:05:00 17.8 C 63 % 10.67 C
1035 11-08-2016 14:10:00 17.9 C 62 % 10.52 C
1036 11-08-2016 14:15:00 17.9 C 60 % 10.03 C
1037 11-08-2016 14:20:00 17.9 C 60 % 10.03 C
1038 11-08-2016 14:25:00 17.9 C 58 % 9.53 C
1039 11-08-2016 14:30:00 18 C 59 % 9.88 C
1040 11-08-2016 14:35:00 18 C 59 % 9.88 C
1041 11-08-2016 14:40:00 18.1 C 60 % 10.22 C
1042 11-08-2016 14:45:00 18.1 C 61 % 10.47 C
1043 11-08-2016 14:50:00 18.1 C 60 % 10.22 C
1044 11-08-2016 14:55:00 18.1 C 59 % 9.97 C
1045 11-08-2016 15:00:00 18.1 C 61 % 10.47 C
1046 11-08-2016 15:05:00 18.1 C 59 % 9.97 C
1047 11-08-2016 15:10:00 18.2 C 60 % 10.31 C
1048 11-08-2016 15:15:00 18.3 C 59 % 10.16 C
1049 11-08-2016 15:20:00 18.4 C 58 % 9.99 C
1050 11-08-2016 15:25:00 18.4 C 58 % 9.99 C
Sensor: Nr:Datum:Temp:Feuchte:Taupunkt:
Aussen-T/F 1051 11-08-2016 15:30:00 18.5 C 57 % 9.83 C
1052 11-08-2016 15:35:00 18.4 C 57 % 9.74 C
1053 11-08-2016 15:40:00 18.3 C 58 % 9.9 C
1054 11-08-2016 15:45:00 18.3 C 58 % 9.9 C
1055 11-08-2016 15:50:00 18.3 C 62 % 10.9 C
1056 11-08-2016 15:55:00 18.3 C 58 % 9.9 C
1057 11-08-2016 16:00:00 18.3 C 58 % 9.9 C
1058 11-08-2016 16:05:00 18.3 C 60 % 10.41 C
1059 11-08-2016 16:10:00 18.3 C 60 % 10.41 C
1060 11-08-2016 16:15:00 18.3 C 62 % 10.9 C
1061 11-08-2016 16:20:00 18.3 C 62 % 10.9 C
1062 11-08-2016 16:25:00 18.3 C 61 % 10.66 C
1063 11-08-2016 16:30:00 18.4 C 59 % 10.25 C
1064 11-08-2016 16:35:00 18.4 C 59 % 10.25 C
1065 11-08-2016 16:40:00 18.4 C 59 % 10.25 C
1066 11-08-2016 16:45:00 18.4 C 59 % 10.25 C
1067 11-08-2016 16:50:00 18.3 C 59 % 10.16 C
1068 11-08-2016 16:55:00 18.4 C 62 % 10.99 C
1069 11-08-2016 17:00:00 18.4 C 58 % 9.99 C
1070 11-08-2016 17:05:00 18.3 C 58 % 9.9 C
1071 11-08-2016 17:10:00 18 C 60 % 10.13 C
1072 11-08-2016 17:15:00 17.8 C 62 % 10.43 C
1073 11-08-2016 17:20:00 17.6 C 65 % 10.95 C
1074 11-08-2016 17:25:00 17.4 C 65 % 10.76 C
1075 11-08-2016 17:30:00 17.3 C 66 % 10.89 C
Sensor: Nr:Datum:Temp:Feuchte:Taupunkt:
Aussen-T/F 1076 11-08-2016 17:35:00 17.1 C 67 % 10.93 C
1077 11-08-2016 17:40:00 16.9 C 68 % 10.96 C
1078 11-08-2016 17:45:00 16.7 C 68 % 10.77 C
1079 11-08-2016 17:50:00 16.5 C 70 % 11.01 C
1080 11-08-2016 17:55:00 16.4 C 73 % 11.55 C
1081 11-08-2016 18:00:00 16.3 C 75 % 11.86 C
1082 11-08-2016 18:05:00 16.3 C 78 % 12.46 C
1083 11-08-2016 18:10:00 16.3 C 80 % 12.85 C
1084 11-08-2016 18:15:00 16.2 C 80 % 12.75 C
1085 11-08-2016 18:20:00 15.9 C 81 % 12.65 C
1086 11-08-2016 18:25:00 15.7 C 82 % 12.64 C
1087 11-08-2016 18:30:00 15.4 C 83 % 12.53 C
1088 11-08-2016 18:35:00 15.2 C 85 % 12.7 C
1089 11-08-2016 18:40:00 15.1 C 85 % 12.6 C
1090 11-08-2016 18:45:00 14.8 C 86 % 12.48 C
1091 11-08-2016 18:50:00 14.6 C 87 % 12.46 C
1092 11-08-2016 18:55:00 14.3 C 87 % 12.17 C
1093 11-08-2016 19:00:00 14.2 C 87 % 12.07 C
1094 11-08-2016 19:05:00 14 C 88 % 12.05 C
1095 11-08-2016 19:10:00 13.9 C 89 % 12.12 C
1096 11-08-2016 19:15:00 13.9 C 90 % 12.29 C
1097 11-08-2016 19:20:00 13.8 C 90 % 12.19 C
1098 11-08-2016 19:25:00 13.8 C 90 % 12.19 C
1099 11-08-2016 19:30:00 13.8 C 90 % 12.19 C
1100 11-08-2016 19:35:00 13.7 C 91 % 12.26 C
Sensor: Nr:Datum:Temp:Feuchte:Taupunkt:
Aussen-T/F 1101 11-08-2016 19:40:00 13.6 C 91 % 12.16 C
1102 11-08-2016 19:45:00 13.6 C 91 % 12.16 C
1103 11-08-2016 19:50:00 13.5 C 91 % 12.06 C
1104 11-08-2016 19:55:00 13.4 C 92 % 12.13 C
1105 11-08-2016 20:00:00 13.4 C 92 % 12.13 C
1106 11-08-2016 20:05:00 13.3 C 92 % 12.03 C
1107 11-08-2016 20:10:00 13.3 C 92 % 12.03 C
1108 11-08-2016 20:15:00 13.3 C 92 % 12.03 C
1109 11-08-2016 20:20:00 13.2 C 92 % 11.93 C
1110 11-08-2016 20:25:00 13.1 C 92 % 11.83 C
1111 11-08-2016 20:30:00 13.1 C 92 % 11.83 C
1112 11-08-2016 20:35:00 12.9 C 92 % 11.63 C
1113 11-08-2016 20:40:00 12.9 C 93 % 11.8 C
1114 11-08-2016 20:45:00 12.9 C 93 % 11.8 C
1115 11-08-2016 20:50:00 12.8 C 93 % 11.7 C
1116 11-08-2016 20:55:00 12.8 C 93 % 11.7 C
1117 11-08-2016 21:00:00 12.8 C 93 % 11.7 C
1118 11-08-2016 21:05:00 12.8 C 93 % 11.7 C
1119 11-08-2016 21:10:00 12.8 C 93 % 11.7 C
1120 11-08-2016 21:15:00 12.8 C 93 % 11.7 C
1121 11-08-2016 21:20:00 12.8 C 93 % 11.7 C
1122 11-08-2016 21:25:00 12.8 C 93 % 11.7 C
1123 11-08-2016 21:30:00 12.8 C 93 % 11.7 C
1124 11-08-2016 21:35:00 12.8 C 93 % 11.7 C
1125 11-08-2016 21:40:00 12.8 C 94 % 11.86 C
Sensor: Nr:Datum:Temp:Feuchte:Taupunkt:
Aussen-T/F 1126 11-08-2016 21:45:00 12.8 C 93 % 11.7 C
1127 11-08-2016 21:50:00 12.8 C 93 % 11.7 C
1128 11-08-2016 21:55:00 12.8 C 93 % 11.7 C
1129 11-08-2016 22:00:00 12.8 C 93 % 11.7 C
1130 11-08-2016 22:05:00 12.9 C 94 % 11.96 C
1131 11-08-2016 22:10:00 12.9 C 94 % 11.96 C
1132 11-08-2016 22:15:00 12.9 C 94 % 11.96 C
1133 11-08-2016 22:20:00 12.9 C 94 % 11.96 C
1134 11-08-2016 22:25:00 12.9 C 94 % 11.96 C
1135 11-08-2016 22:30:00 12.9 C 94 % 11.96 C
1136 11-08-2016 22:35:00 12.9 C 94 % 11.96 C
1137 11-08-2016 22:40:00 12.9 C 94 % 11.96 C
1138 11-08-2016 22:45:00 12.9 C 94 % 11.96 C
1139 11-08-2016 22:50:00 12.9 C 94 % 11.96 C
1140 11-08-2016 22:55:00 12.9 C 94 % 11.96 C
1141 11-08-2016 23:00:00 12.9 C 94 % 11.96 C
1142 11-08-2016 23:05:00 12.9 C 94 % 11.96 C
1143 11-08-2016 23:10:00 13 C 94 % 12.06 C
1144 11-08-2016 23:15:00 13 C 94 % 12.06 C
1145 11-08-2016 23:20:00 13 C 94 % 12.06 C
1146 11-08-2016 23:25:00 13.1 C 94 % 12.16 C
1147 11-08-2016 23:30:00 13.1 C 94 % 12.16 C
1148 11-08-2016 23:35:00 13.1 C 94 % 12.16 C
1149 11-08-2016 23:40:00 13.1 C 94 % 12.16 C
1150 11-08-2016 23:45:00 13.1 C 94 % 12.16 C
Sensor: Nr:Datum:Temp:Feuchte:Taupunkt:
Aussen-T/F 1151 11-08-2016 23:50:00 13.2 C 94 % 12.26 C
1152 11-08-2016 23:55:00 13.2 C 95 % 12.42 C
1153 12-08-2016 00:00:00 13.2 C 95 % 12.42 C
1154 12-08-2016 00:05:00 13.2 C 95 % 12.42 C
1155 12-08-2016 00:10:00 13.2 C 95 % 12.42 C
1156 12-08-2016 00:15:00 13.2 C 95 % 12.42 C
1157 12-08-2016 00:20:00 13.2 C 95 % 12.42 C
1158 12-08-2016 00:25:00 13.3 C 95 % 12.52 C
1159 12-08-2016 00:30:00 13.3 C 95 % 12.52 C
1160 12-08-2016 00:35:00 13.3 C 95 % 12.52 C
1161 12-08-2016 00:40:00 13.3 C 94 % 12.36 C
1162 12-08-2016 00:45:00 13.3 C 95 % 12.52 C
1163 12-08-2016 00:50:00 13.3 C 95 % 12.52 C
1164 12-08-2016 00:55:00 13.3 C 94 % 12.36 C
1165 12-08-2016 01:00:00 13.3 C 94 % 12.36 C
1166 12-08-2016 01:05:00 13.4 C 95 % 12.62 C
1167 12-08-2016 01:10:00 13.4 C 95 % 12.62 C
1168 12-08-2016 01:15:00 13.4 C 95 % 12.62 C
1169 12-08-2016 01:20:00 13.4 C 95 % 12.62 C
1170 12-08-2016 01:25:00 13.4 C 95 % 12.62 C
1171 12-08-2016 01:30:00 13.4 C 94 % 12.45 C
1172 12-08-2016 01:35:00 13.4 C 95 % 12.62 C
1173 12-08-2016 01:40:00 13.4 C 95 % 12.62 C
1174 12-08-2016 01:45:00 13.4 C 95 % 12.62 C
1175 12-08-2016 01:50:00 13.4 C 95 % 12.62 C
Sensor: Nr:Datum:Temp:Feuchte:Taupunkt:
Aussen-T/F 1176 12-08-2016 01:55:00 13.4 C 95 % 12.62 C
1177 12-08-2016 02:00:00 13.5 C 95 % 12.72 C
1178 12-08-2016 02:05:00 13.5 C 95 % 12.72 C
1179 12-08-2016 02:10:00 13.5 C 95 % 12.72 C
1180 12-08-2016 02:15:00 13.6 C 95 % 12.81 C
1181 12-08-2016 02:20:00 13.5 C 95 % 12.72 C
1182 12-08-2016 02:25:00 13.5 C 95 % 12.72 C
1183 12-08-2016 02:30:00 13.5 C 95 % 12.72 C
1184 12-08-2016 02:35:00 13.5 C 95 % 12.72 C
1185 12-08-2016 02:40:00 13.5 C 95 % 12.72 C
1186 12-08-2016 02:45:00 13.5 C 95 % 12.72 C
1187 12-08-2016 02:50:00 13.5 C 95 % 12.72 C
1188 12-08-2016 02:55:00 13.6 C 95 % 12.81 C
1189 12-08-2016 03:00:00 13.6 C 95 % 12.81 C
1190 12-08-2016 03:05:00 13.6 C 95 % 12.81 C
1191 12-08-2016 03:10:00 13.6 C 95 % 12.81 C
1192 12-08-2016 03:15:00 13.6 C 95 % 12.81 C
1193 12-08-2016 03:20:00 13.6 C 95 % 12.81 C
1194 12-08-2016 03:25:00 13.6 C 95 % 12.81 C
1195 12-08-2016 03:30:00 13.6 C 95 % 12.81 C
1196 12-08-2016 03:35:00 13.6 C 95 % 12.81 C
1197 12-08-2016 03:40:00 13.7 C 95 % 12.91 C
1198 12-08-2016 03:45:00 13.7 C 95 % 12.91 C
1199 12-08-2016 03:50:00 13.7 C 95 % 12.91 C
1200 12-08-2016 03:55:00 13.7 C 95 % 12.91 C
Sensor: Nr:Datum:Temp:Feuchte:Taupunkt:
Aussen-T/F 1201 12-08-2016 04:00:00 13.7 C 95 % 12.91 C
1202 12-08-2016 04:05:00 13.7 C 95 % 12.91 C
1203 12-08-2016 04:10:00 13.7 C 95 % 12.91 C
1204 12-08-2016 04:15:00 13.7 C 95 % 12.91 C
1205 12-08-2016 04:20:00 13.7 C 95 % 12.91 C
1206 12-08-2016 04:25:00 13.8 C 95 % 13.01 C
1207 12-08-2016 04:30:00 13.8 C 95 % 13.01 C
1208 12-08-2016 04:35:00 13.8 C 95 % 13.01 C
1209 12-08-2016 04:40:00 13.8 C 95 % 13.01 C
1210 12-08-2016 04:45:00 13.8 C 95 % 13.01 C
1211 12-08-2016 04:50:00 13.9 C 95 % 13.11 C
1212 12-08-2016 04:55:00 13.9 C 95 % 13.11 C
1213 12-08-2016 05:00:00 13.9 C 95 % 13.11 C
1214 12-08-2016 05:05:00 13.9 C 95 % 13.11 C
1215 12-08-2016 05:10:00 14 C 95 % 13.21 C
1216 12-08-2016 05:15:00 14 C 95 % 13.21 C
1217 12-08-2016 05:20:00 14.1 C 95 % 13.31 C
1218 12-08-2016 05:25:00 14.1 C 95 % 13.31 C
1219 12-08-2016 05:30:00 14.1 C 94 % 13.15 C
1220 12-08-2016 05:35:00 14.1 C 94 % 13.15 C
1221 12-08-2016 05:40:00 14.1 C 94 % 13.15 C
1222 12-08-2016 05:45:00 14.1 C 94 % 13.15 C
1223 12-08-2016 05:50:00 14.2 C 95 % 13.41 C
1224 12-08-2016 05:55:00 14.2 C 95 % 13.41 C
1225 12-08-2016 06:00:00 14.2 C 95 % 13.41 C
Sensor: Nr:Datum:Temp:Feuchte:Taupunkt:
Aussen-T/F 1226 12-08-2016 06:05:00 14.2 C 94 % 13.25 C
1227 12-08-2016 06:10:00 14.2 C 94 % 13.25 C
1228 12-08-2016 06:15:00 14.2 C 94 % 13.25 C
1229 12-08-2016 06:20:00 14.2 C 94 % 13.25 C
1230 12-08-2016 06:25:00 14.3 C 94 % 13.35 C
1231 12-08-2016 06:30:00 14.3 C 94 % 13.35 C
1232 12-08-2016 06:35:00 14.3 C 94 % 13.35 C
1233 12-08-2016 06:40:00 14.3 C 94 % 13.35 C
1234 12-08-2016 06:45:00 14.3 C 94 % 13.35 C
1235 12-08-2016 06:50:00 14.3 C 94 % 13.35 C
1236 12-08-2016 06:55:00 14.3 C 94 % 13.35 C
1237 12-08-2016 07:00:00 14.4 C 94 % 13.45 C
1238 12-08-2016 07:05:00 14.4 C 94 % 13.45 C
1239 12-08-2016 07:10:00 14.4 C 94 % 13.45 C
1240 12-08-2016 07:15:00 14.4 C 94 % 13.45 C
1241 12-08-2016 07:20:00 14.5 C 94 % 13.55 C
1242 12-08-2016 07:25:00 14.6 C 94 % 13.65 C
1243 12-08-2016 07:30:00 14.6 C 94 % 13.65 C
1244 12-08-2016 07:35:00 14.7 C 94 % 13.74 C
1245 12-08-2016 07:40:00 14.7 C 94 % 13.74 C
1246 12-08-2016 07:45:00 14.7 C 94 % 13.74 C
1247 12-08-2016 07:50:00 14.7 C 94 % 13.74 C
1248 12-08-2016 07:55:00 14.8 C 94 % 13.84 C
1249 12-08-2016 08:00:00 14.8 C 94 % 13.84 C
1250 12-08-2016 08:05:00 14.8 C 94 % 13.84 C
Sensor: Nr:Datum:Temp:Feuchte:Taupunkt:
Aussen-T/F 1251 12-08-2016 08:10:00 14.8 C 94 % 13.84 C
1252 12-08-2016 08:15:00 14.9 C 94 % 13.94 C
1253 12-08-2016 08:20:00 14.9 C 94 % 13.94 C
1254 12-08-2016 08:25:00 15 C 94 % 14.04 C
1255 12-08-2016 08:30:00 15 C 94 % 14.04 C
1256 12-08-2016 08:35:00 15.1 C 94 % 14.14 C
1257 12-08-2016 08:40:00 15.1 C 94 % 14.14 C
1258 12-08-2016 08:45:00 15.2 C 94 % 14.24 C
1259 12-08-2016 08:50:00 15.3 C 94 % 14.34 C
1260 12-08-2016 08:55:00 15.3 C 94 % 14.34 C
1261 12-08-2016 09:00:00 15.4 C 94 % 14.44 C
1262 12-08-2016 09:05:00 15.4 C 94 % 14.44 C
1263 12-08-2016 09:10:00 15.3 C 94 % 14.34 C
1264 12-08-2016 09:15:00 15.3 C 94 % 14.34 C
1265 12-08-2016 09:20:00 15.4 C 94 % 14.44 C
1266 12-08-2016 09:25:00 15.6 C 94 % 14.64 C
1267 12-08-2016 09:30:00 15.7 C 94 % 14.74 C
1268 12-08-2016 09:35:00 15.7 C 94 % 14.74 C
1269 12-08-2016 09:40:00 15.8 C 93 % 14.67 C
1270 12-08-2016 09:45:00 15.8 C 93 % 14.67 C
1271 12-08-2016 09:50:00 15.9 C 93 % 14.77 C
1272 12-08-2016 09:55:00 16 C 93 % 14.87 C
1273 12-08-2016 10:00:00 16.1 C 93 % 14.97 C
1274 12-08-2016 10:05:00 16.1 C 93 % 14.97 C
1275 12-08-2016 10:10:00 16.2 C 93 % 15.07 C
Sensor: Nr:Datum:Temp:Feuchte:Taupunkt:
Aussen-T/F 1276 12-08-2016 10:15:00 16.2 C 93 % 15.07 C
1277 12-08-2016 10:20:00 16.3 C 93 % 15.17 C
1278 12-08-2016 10:25:00 16.3 C 93 % 15.17 C
1279 12-08-2016 10:30:00 16.4 C 93 % 15.27 C
1280 12-08-2016 10:35:00 16.3 C 93 % 15.17 C
1281 12-08-2016 10:40:00 16.3 C 92 % 15 C
1282 12-08-2016 10:45:00 16.4 C 92 % 15.1 C
1283 12-08-2016 10:50:00 16.6 C 93 % 15.46 C
1284 12-08-2016 10:55:00 16.7 C 93 % 15.56 C
1285 12-08-2016 11:00:00 16.7 C 92 % 15.39 C
1286 12-08-2016 11:05:00 16.9 C 93 % 15.76 C
1287 12-08-2016 11:10:00 17.1 C 93 % 15.96 C
1288 12-08-2016 11:15:00 17.2 C 92 % 15.89 C
1289 12-08-2016 11:20:00 17.3 C 91 % 15.82 C
1290 12-08-2016 11:25:00 17.5 C 91 % 16.01 C
1291 12-08-2016 11:30:00 17.7 C 91 % 16.21 C
1292 12-08-2016 11:35:00 17.8 C 90 % 16.14 C
1293 12-08-2016 11:40:00 17.9 C 90 % 16.24 C
1294 12-08-2016 11:45:00 18.2 C 90 % 16.53 C
1295 12-08-2016 11:50:00 18.4 C 90 % 16.73 C
1296 12-08-2016 11:55:00 18.6 C 89 % 16.75 C
1297 12-08-2016 12:00:00 18.7 C 89 % 16.85 C
1298 12-08-2016 12:05:00 18.8 C 89 % 16.95 C
1299 12-08-2016 12:10:00 19 C 88 % 16.97 C
1300 12-08-2016 12:15:00 19.2 C 88 % 17.16 C
Sensor: Nr:Datum:Temp:Feuchte:Taupunkt:
Aussen-T/F 1301 12-08-2016 12:20:00 19.3 C 87 % 17.08 C
1302 12-08-2016 12:25:00 19.6 C 86 % 17.19 C
1303 12-08-2016 12:30:00 19.7 C 86 % 17.29 C
1304 12-08-2016 12:35:00 19.7 C 85 % 17.11 C
1305 12-08-2016 12:40:00 19.8 C 86 % 17.39 C
1306 12-08-2016 12:45:00 19.7 C 85 % 17.11 C
1307 12-08-2016 12:50:00 19.7 C 86 % 17.29 C
1308 12-08-2016 12:55:00 19.7 C 86 % 17.29 C
1309 12-08-2016 13:00:00 19.7 C 87 % 17.47 C
1310 12-08-2016 13:05:00 19.9 C 86 % 17.49 C
1311 12-08-2016 13:10:00 20.1 C 85 % 17.5 C
1312 12-08-2016 13:15:00 20 C 84 % 17.21 C
1313 12-08-2016 13:20:00 20 C 85 % 17.4 C
1314 12-08-2016 13:25:00 20 C 86 % 17.59 C
1315 12-08-2016 13:30:00 20.2 C 85 % 17.6 C
1316 12-08-2016 13:35:00 20.4 C 84 % 17.61 C
1317 12-08-2016 13:40:00 20.7 C 84 % 17.9 C
1318 12-08-2016 13:45:00 20.8 C 83 % 17.81 C
1319 12-08-2016 13:50:00 20.9 C 83 % 17.9 C
1320 12-08-2016 13:55:00 20.9 C 85 % 18.28 C
1321 12-08-2016 14:00:00 20.9 C 83 % 17.9 C
1322 12-08-2016 14:05:00 21 C 83 % 18 C
1323 12-08-2016 14:10:00 21.2 C 83 % 18.2 C
1324 12-08-2016 14:15:00 21.4 C 81 % 18 C
1325 12-08-2016 14:20:00 21.6 C 80 % 18 C
Sensor: Nr:Datum:Temp:Feuchte:Taupunkt:
Aussen-T/F 1326 12-08-2016 14:25:00 21.6 C 81 % 18.2 C
1327 12-08-2016 14:30:00 21.4 C 83 % 18.39 C
1328 12-08-2016 14:35:00 21.3 C 83 % 18.29 C
1329 12-08-2016 14:40:00 21.3 C 84 % 18.49 C
1330 12-08-2016 14:45:00 21.1 C 84 % 18.29 C
1331 12-08-2016 14:50:00 20.9 C 85 % 18.28 C
1332 12-08-2016 14:55:00 20.8 C 87 % 18.56 C
1333 12-08-2016 15:00:00 20.7 C 87 % 18.46 C
1334 12-08-2016 15:05:00 20.7 C 87 % 18.46 C
1335 12-08-2016 15:10:00 20.6 C 88 % 18.54 C
1336 12-08-2016 15:15:00 20.5 C 88 % 18.44 C
1337 12-08-2016 15:20:00 20.5 C 88 % 18.44 C
1338 12-08-2016 15:25:00 20.5 C 88 % 18.44 C
1339 12-08-2016 15:30:00 20.6 C 88 % 18.54 C
1340 12-08-2016 15:35:00 20.6 C 89 % 18.72 C
1341 12-08-2016 15:40:00 20.5 C 87 % 18.26 C
1342 12-08-2016 15:45:00 20.5 C 88 % 18.44 C
1343 12-08-2016 15:50:00 20.4 C 88 % 18.34 C
1344 12-08-2016 15:55:00 20.4 C 89 % 18.53 C
1345 12-08-2016 16:00:00 20.6 C 90 % 18.9 C
1346 12-08-2016 16:05:00 20.9 C 90 % 19.2 C
1347 12-08-2016 16:10:00 21 C 87 % 18.75 C
1348 12-08-2016 16:15:00 21.3 C 88 % 19.23 C
1349 12-08-2016 16:20:00 21.3 C 87 % 19.05 C
1350 12-08-2016 16:25:00 21.7 C 83 % 18.69 C
Sensor: Nr:Datum:Temp:Feuchte:Taupunkt:
Aussen-T/F 1351 12-08-2016 16:30:00 22.2 C 82 % 18.98 C
1352 12-08-2016 16:35:00 22.7 C 80 % 19.07 C
1353 12-08-2016 16:40:00 23.1 C 76 % 18.64 C
1354 12-08-2016 16:45:00 23.2 C 78 % 19.15 C
1355 12-08-2016 16:50:00 23.2 C 76 % 18.73 C
1356 12-08-2016 16:55:00 23.1 C 77 % 18.85 C
1357 12-08-2016 17:00:00 23 C 78 % 18.96 C
1358 12-08-2016 17:05:00 22.8 C 82 % 19.56 C
1359 12-08-2016 17:10:00 22.6 C 83 % 19.56 C
1360 12-08-2016 17:15:00 22.4 C 83 % 19.37 C
1361 12-08-2016 17:20:00 22.2 C 83 % 19.17 C
1362 12-08-2016 17:25:00 22.1 C 84 % 19.27 C
1363 12-08-2016 17:30:00 21.9 C 84 % 19.07 C
1364 12-08-2016 17:35:00 21.7 C 84 % 18.88 C
1365 12-08-2016 17:40:00 21.5 C 85 % 18.87 C
1366 12-08-2016 17:45:00 21.3 C 86 % 18.86 C
1367 12-08-2016 17:50:00 21.2 C 86 % 18.76 C
1368 12-08-2016 17:55:00 21.1 C 87 % 18.85 C
1369 12-08-2016 18:00:00 20.9 C 87 % 18.65 C
1370 12-08-2016 18:05:00 20.8 C 87 % 18.56 C
1371 12-08-2016 18:10:00 20.7 C 88 % 18.64 C
1372 12-08-2016 18:15:00 20.5 C 88 % 18.44 C
1373 12-08-2016 18:20:00 20.4 C 88 % 18.34 C
1374 12-08-2016 18:25:00 20.3 C 88 % 18.25 C
1375 12-08-2016 18:30:00 20.2 C 89 % 18.33 C
Sensor: Nr:Datum:Temp:Feuchte:Taupunkt:
Aussen-T/F 1376 12-08-2016 18:35:00 20.1 C 89 % 18.23 C
1377 12-08-2016 18:40:00 20 C 89 % 18.13 C
1378 12-08-2016 18:45:00 19.9 C 89 % 18.03 C
1379 12-08-2016 18:50:00 19.8 C 89 % 17.93 C
1380 12-08-2016 18:55:00 19.8 C 90 % 18.11 C
1381 12-08-2016 19:00:00 19.8 C 90 % 18.11 C
1382 12-08-2016 19:05:00 19.8 C 90 % 18.11 C
1383 12-08-2016 19:10:00 19.8 C 90 % 18.11 C
1384 12-08-2016 19:15:00 19.9 C 90 % 18.21 C
1385 12-08-2016 19:20:00 19.9 C 90 % 18.21 C
1386 12-08-2016 19:25:00 19.9 C 90 % 18.21 C
1387 12-08-2016 19:30:00 19.9 C 90 % 18.21 C
1388 12-08-2016 19:35:00 19.9 C 90 % 18.21 C
1389 12-08-2016 19:40:00 19.9 C 90 % 18.21 C
1390 12-08-2016 19:45:00 19.9 C 90 % 18.21 C
1391 12-08-2016 19:50:00 19.8 C 90 % 18.11 C
1392 12-08-2016 19:55:00 19.8 C 90 % 18.11 C
1393 12-08-2016 20:00:00 19.7 C 90 % 18.01 C
1394 12-08-2016 20:05:00 19.7 C 90 % 18.01 C
1395 12-08-2016 20:10:00 19.6 C 90 % 17.91 C
1396 12-08-2016 20:15:00 19.5 C 90 % 17.82 C
1397 12-08-2016 20:20:00 19.4 C 90 % 17.72 C
1398 12-08-2016 20:25:00 19.4 C 90 % 17.72 C
1399 12-08-2016 20:30:00 19.3 C 90 % 17.62 C
1400 12-08-2016 20:35:00 19.2 C 90 % 17.52 C
Sensor: Nr:Datum:Temp:Feuchte:Taupunkt:
Aussen-T/F 1401 12-08-2016 20:40:00 19.1 C 91 % 17.6 C
1402 12-08-2016 20:45:00 19.1 C 91 % 17.6 C
1403 12-08-2016 20:50:00 19 C 91 % 17.5 C
1404 12-08-2016 20:55:00 18.9 C 91 % 17.4 C
1405 12-08-2016 21:00:00 18.8 C 91 % 17.3 C
1406 12-08-2016 21:05:00 18.8 C 91 % 17.3 C
1407 12-08-2016 21:10:00 18.7 C 91 % 17.2 C
1408 12-08-2016 21:15:00 18.7 C 91 % 17.2 C
1409 12-08-2016 21:20:00 18.6 C 91 % 17.1 C
1410 12-08-2016 21:25:00 18.6 C 91 % 17.1 C
1411 12-08-2016 21:30:00 18.5 C 92 % 17.18 C
1412 12-08-2016 21:35:00 18.5 C 92 % 17.18 C
1413 12-08-2016 21:40:00 18.5 C 92 % 17.18 C
1414 12-08-2016 21:45:00 18.5 C 92 % 17.18 C
1415 12-08-2016 21:50:00 18.5 C 92 % 17.18 C
1416 12-08-2016 21:55:00 18.5 C 92 % 17.18 C
1417 12-08-2016 22:00:00 18.5 C 92 % 17.18 C
1418 12-08-2016 22:05:00 18.5 C 92 % 17.18 C
1419 12-08-2016 22:10:00 18.5 C 92 % 17.18 C
1420 12-08-2016 22:15:00 18.5 C 92 % 17.18 C
1421 12-08-2016 22:20:00 18.5 C 92 % 17.18 C
1422 12-08-2016 22:25:00 18.5 C 91 % 17 C
1423 12-08-2016 22:30:00 18.5 C 91 % 17 C
1424 12-08-2016 22:35:00 18.5 C 91 % 17 C
1425 12-08-2016 22:40:00 18.5 C 91 % 17 C
Sensor: Nr:Datum:Temp:Feuchte:Taupunkt:
Aussen-T/F 1426 12-08-2016 22:45:00 18.5 C 91 % 17 C
1427 12-08-2016 22:50:00 18.5 C 91 % 17 C
1428 12-08-2016 22:55:00 18.5 C 91 % 17 C
1429 12-08-2016 23:00:00 18.5 C 91 % 17 C
1430 12-08-2016 23:05:00 18.5 C 91 % 17 C
1431 12-08-2016 23:10:00 18.5 C 90 % 16.83 C
1432 12-08-2016 23:15:00 18.6 C 90 % 16.93 C
1433 12-08-2016 23:20:00 18.6 C 90 % 16.93 C
1434 12-08-2016 23:25:00 18.6 C 90 % 16.93 C
1435 12-08-2016 23:30:00 18.6 C 90 % 16.93 C
1436 12-08-2016 23:35:00 18.6 C 90 % 16.93 C
1437 12-08-2016 23:40:00 18.5 C 90 % 16.83 C
1438 12-08-2016 23:45:00 18.5 C 90 % 16.83 C
1439 12-08-2016 23:50:00 18.5 C 90 % 16.83 C
1440 12-08-2016 23:55:00 18.5 C 90 % 16.83 C

Legende:
   Min
   Max


Maximal/Minimal-Werte vom 08.08.2016 - 12.08.2016

Sensor Min Max Avg
Temp
(Aussen-T/F)
6.8 °C
11-08-2016  06:55:00
25.3 °C
08-08-2016  16:20:00
15.67 °C
Feuchte
(Aussen-T/F)
40 %
09-08-2016  16:20:00
96 %
11-08-2016  07:45:00
80.86 %
Taupunkt
(Aussen-T/F)
6.06 C
11-08-2016  06:55:00
19.56 C
12-08-2016  17:05:00
12.11 C

Die Daten stammen von einer Davis Vantage Pro 2 Wetter-Station und werden unter Linux mit der Software wview2wettercgi und aufbereitet. Alle Angaben erfolgen ohne Gewähr für ihre Vollständigkeit oder Richtigkeit.
Kontakt: Rainer Krienke krienke@uni-koblenz.de . Meine Webseiten an der Uni Koblenz oder privat.
Version: $Revision: 0.78 $